<?xml version="1.0" encoding="UTF-8" standalone="no" ?>
<gpx xmlns="http://www.topografix.com/GPX/1/1" xmlns:xsi="http://www.w3.org/2001/XMLSchema-instance" xsi:schemaLocation="http://www.topografix.com/GPX/1/1 http://www.topografix.com/GPX/1/1/gpx.xsd" version="1.1" creator="VisuGPX - https://www.visugpx.com">
  <metadata>
    <name>CDS j2</name>
    <desc><![CDATA[Chemin du soleil]]></desc>
  </metadata>
  <trk>
    <name><![CDATA[ACTIVE LOG083705]]></name>
    <trkseg>
      <trkpt lat="45.4335" lon="5.75574">
        <ele>395</ele>
        <time>2011-08-10T06:37:04Z</time>
      </trkpt>
      <trkpt lat="45.43351" lon="5.75573">
        <ele>395</ele>
        <time>2011-08-10T06:37:55Z</time>
      </trkpt>
      <trkpt lat="45.43351" lon="5.75574">
        <ele>395</ele>
        <time>2011-08-10T06:38:05Z</time>
      </trkpt>
      <trkpt lat="45.43356" lon="5.75576">
        <ele>394</ele>
        <time>2011-08-10T06:38:09Z</time>
      </trkpt>
      <trkpt lat="45.43358" lon="5.75578">
        <ele>394</ele>
        <time>2011-08-10T06:38:11Z</time>
      </trkpt>
      <trkpt lat="45.43353" lon="5.75595">
        <ele>395</ele>
        <time>2011-08-10T06:38:17Z</time>
      </trkpt>
      <trkpt lat="45.43364" lon="5.75654">
        <ele>394</ele>
        <time>2011-08-10T06:38:30Z</time>
      </trkpt>
      <trkpt lat="45.43382" lon="5.75708">
        <ele>393</ele>
        <time>2011-08-10T06:38:42Z</time>
      </trkpt>
      <trkpt lat="45.43406" lon="5.75806">
        <ele>395</ele>
        <time>2011-08-10T06:39:01Z</time>
      </trkpt>
      <trkpt lat="45.43436" lon="5.75869">
        <ele>395</ele>
        <time>2011-08-10T06:39:16Z</time>
      </trkpt>
      <trkpt lat="45.43448" lon="5.75899">
        <ele>395</ele>
        <time>2011-08-10T06:39:22Z</time>
      </trkpt>
      <trkpt lat="45.43462" lon="5.75994">
        <ele>396</ele>
        <time>2011-08-10T06:39:38Z</time>
      </trkpt>
      <trkpt lat="45.43493" lon="5.76133">
        <ele>396</ele>
        <time>2011-08-10T06:40:00Z</time>
      </trkpt>
      <trkpt lat="45.43505" lon="5.76259">
        <ele>396</ele>
        <time>2011-08-10T06:40:20Z</time>
      </trkpt>
      <trkpt lat="45.43513" lon="5.7629">
        <ele>395</ele>
        <time>2011-08-10T06:40:25Z</time>
      </trkpt>
      <trkpt lat="45.43568" lon="5.76388">
        <ele>397</ele>
        <time>2011-08-10T06:40:43Z</time>
      </trkpt>
      <trkpt lat="45.43634" lon="5.76465">
        <ele>399</ele>
        <time>2011-08-10T06:41:01Z</time>
      </trkpt>
      <trkpt lat="45.43646" lon="5.76474">
        <ele>399</ele>
        <time>2011-08-10T06:41:04Z</time>
      </trkpt>
      <trkpt lat="45.43664" lon="5.76496">
        <ele>400</ele>
        <time>2011-08-10T06:41:09Z</time>
      </trkpt>
      <trkpt lat="45.43669" lon="5.76507">
        <ele>400</ele>
        <time>2011-08-10T06:41:11Z</time>
      </trkpt>
      <trkpt lat="45.43675" lon="5.76537">
        <ele>400</ele>
        <time>2011-08-10T06:41:16Z</time>
      </trkpt>
      <trkpt lat="45.43689" lon="5.76695">
        <ele>401</ele>
        <time>2011-08-10T06:41:41Z</time>
      </trkpt>
      <trkpt lat="45.437" lon="5.76826">
        <ele>402</ele>
        <time>2011-08-10T06:42:02Z</time>
      </trkpt>
      <trkpt lat="45.43711" lon="5.76933">
        <ele>404</ele>
        <time>2011-08-10T06:42:19Z</time>
      </trkpt>
      <trkpt lat="45.43722" lon="5.7696">
        <ele>404</ele>
        <time>2011-08-10T06:42:24Z</time>
      </trkpt>
      <trkpt lat="45.43734" lon="5.76977">
        <ele>405</ele>
        <time>2011-08-10T06:42:28Z</time>
      </trkpt>
      <trkpt lat="45.43742" lon="5.76984">
        <ele>405</ele>
        <time>2011-08-10T06:42:30Z</time>
      </trkpt>
      <trkpt lat="45.438" lon="5.77023">
        <ele>406</ele>
        <time>2011-08-10T06:42:44Z</time>
      </trkpt>
      <trkpt lat="45.43808" lon="5.77032">
        <ele>406</ele>
        <time>2011-08-10T06:42:46Z</time>
      </trkpt>
      <trkpt lat="45.43815" lon="5.77043">
        <ele>405</ele>
        <time>2011-08-10T06:42:48Z</time>
      </trkpt>
      <trkpt lat="45.43827" lon="5.77074">
        <ele>405</ele>
        <time>2011-08-10T06:42:53Z</time>
      </trkpt>
      <trkpt lat="45.43838" lon="5.77125">
        <ele>405</ele>
        <time>2011-08-10T06:43:01Z</time>
      </trkpt>
      <trkpt lat="45.4384" lon="5.77155">
        <ele>405</ele>
        <time>2011-08-10T06:43:06Z</time>
      </trkpt>
      <trkpt lat="45.43834" lon="5.77265">
        <ele>408</ele>
        <time>2011-08-10T06:43:23Z</time>
      </trkpt>
      <trkpt lat="45.4385" lon="5.77301">
        <ele>409</ele>
        <time>2011-08-10T06:43:30Z</time>
      </trkpt>
      <trkpt lat="45.43868" lon="5.77312">
        <ele>409</ele>
        <time>2011-08-10T06:43:34Z</time>
      </trkpt>
      <trkpt lat="45.43878" lon="5.77355">
        <ele>410</ele>
        <time>2011-08-10T06:43:41Z</time>
      </trkpt>
      <trkpt lat="45.43875" lon="5.77367">
        <ele>410</ele>
        <time>2011-08-10T06:43:43Z</time>
      </trkpt>
      <trkpt lat="45.43861" lon="5.77404">
        <ele>411</ele>
        <time>2011-08-10T06:43:50Z</time>
      </trkpt>
      <trkpt lat="45.43856" lon="5.7742">
        <ele>412</ele>
        <time>2011-08-10T06:43:53Z</time>
      </trkpt>
      <trkpt lat="45.43842" lon="5.77482">
        <ele>412</ele>
        <time>2011-08-10T06:44:08Z</time>
      </trkpt>
      <trkpt lat="45.43842" lon="5.77484">
        <ele>412</ele>
        <time>2011-08-10T06:44:09Z</time>
      </trkpt>
      <trkpt lat="45.43868" lon="5.77505">
        <ele>412</ele>
        <time>2011-08-10T06:44:19Z</time>
      </trkpt>
      <trkpt lat="45.43881" lon="5.77519">
        <ele>412</ele>
        <time>2011-08-10T06:44:23Z</time>
      </trkpt>
      <trkpt lat="45.43943" lon="5.77584">
        <ele>413</ele>
        <time>2011-08-10T06:44:41Z</time>
      </trkpt>
      <trkpt lat="45.44001" lon="5.77678">
        <ele>414</ele>
        <time>2011-08-10T06:45:02Z</time>
      </trkpt>
      <trkpt lat="45.44049" lon="5.77792">
        <ele>413</ele>
        <time>2011-08-10T06:45:23Z</time>
      </trkpt>
      <trkpt lat="45.44092" lon="5.77945">
        <ele>414</ele>
        <time>2011-08-10T06:45:49Z</time>
      </trkpt>
      <trkpt lat="45.44127" lon="5.7809">
        <ele>420</ele>
        <time>2011-08-10T06:46:13Z</time>
      </trkpt>
      <trkpt lat="45.44139" lon="5.78146">
        <ele>422</ele>
        <time>2011-08-10T06:46:22Z</time>
      </trkpt>
      <trkpt lat="45.44151" lon="5.78183">
        <ele>432</ele>
        <time>2011-08-10T06:46:28Z</time>
      </trkpt>
      <trkpt lat="45.44163" lon="5.78204">
        <ele>436</ele>
        <time>2011-08-10T06:46:32Z</time>
      </trkpt>
      <trkpt lat="45.44197" lon="5.78246">
        <ele>428</ele>
        <time>2011-08-10T06:46:41Z</time>
      </trkpt>
      <trkpt lat="45.44213" lon="5.78264">
        <ele>441</ele>
        <time>2011-08-10T06:46:45Z</time>
      </trkpt>
      <trkpt lat="45.44242" lon="5.78277">
        <ele>440</ele>
        <time>2011-08-10T06:46:51Z</time>
      </trkpt>
      <trkpt lat="45.44272" lon="5.78266">
        <ele>439</ele>
        <time>2011-08-10T06:46:58Z</time>
      </trkpt>
      <trkpt lat="45.44291" lon="5.78245">
        <ele>422</ele>
        <time>2011-08-10T06:47:04Z</time>
      </trkpt>
      <trkpt lat="45.4435" lon="5.78243">
        <ele>424</ele>
        <time>2011-08-10T06:47:17Z</time>
      </trkpt>
      <trkpt lat="45.44359" lon="5.78243">
        <ele>423</ele>
        <time>2011-08-10T06:47:19Z</time>
      </trkpt>
      <trkpt lat="45.44405" lon="5.7826">
        <ele>434</ele>
        <time>2011-08-10T06:47:30Z</time>
      </trkpt>
      <trkpt lat="45.44424" lon="5.78262">
        <ele>428</ele>
        <time>2011-08-10T06:47:34Z</time>
      </trkpt>
      <trkpt lat="45.44466" lon="5.78291">
        <ele>434</ele>
        <time>2011-08-10T06:47:46Z</time>
      </trkpt>
      <trkpt lat="45.44521" lon="5.78321">
        <ele>430</ele>
        <time>2011-08-10T06:48:01Z</time>
      </trkpt>
      <trkpt lat="45.44559" lon="5.7834">
        <ele>446</ele>
        <time>2011-08-10T06:48:13Z</time>
      </trkpt>
      <trkpt lat="45.44593" lon="5.78371">
        <ele>437</ele>
        <time>2011-08-10T06:48:27Z</time>
      </trkpt>
      <trkpt lat="45.44625" lon="5.78406">
        <ele>439</ele>
        <time>2011-08-10T06:48:40Z</time>
      </trkpt>
      <trkpt lat="45.44638" lon="5.78421">
        <ele>477</ele>
        <time>2011-08-10T06:48:46Z</time>
      </trkpt>
      <trkpt lat="45.4467" lon="5.7845">
        <ele>471</ele>
        <time>2011-08-10T06:48:58Z</time>
      </trkpt>
      <trkpt lat="45.44696" lon="5.78483">
        <ele>494</ele>
        <time>2011-08-10T06:49:11Z</time>
      </trkpt>
      <trkpt lat="45.4473" lon="5.78502">
        <ele>532</ele>
        <time>2011-08-10T06:49:22Z</time>
      </trkpt>
      <trkpt lat="45.44769" lon="5.7852">
        <ele>512</ele>
        <time>2011-08-10T06:49:40Z</time>
      </trkpt>
      <trkpt lat="45.44799" lon="5.78528">
        <ele>508</ele>
        <time>2011-08-10T06:50:00Z</time>
      </trkpt>
      <trkpt lat="45.44821" lon="5.78542">
        <ele>510</ele>
        <time>2011-08-10T06:50:13Z</time>
      </trkpt>
      <trkpt lat="45.44822" lon="5.78543">
        <ele>511</ele>
        <time>2011-08-10T06:50:14Z</time>
      </trkpt>
      <trkpt lat="45.44835" lon="5.78549">
        <ele>483</ele>
        <time>2011-08-10T06:50:30Z</time>
      </trkpt>
      <trkpt lat="45.44837" lon="5.78549">
        <ele>482</ele>
        <time>2011-08-10T06:50:33Z</time>
      </trkpt>
      <trkpt lat="45.44844" lon="5.78556">
        <ele>488</ele>
        <time>2011-08-10T06:50:44Z</time>
      </trkpt>
      <trkpt lat="45.44847" lon="5.78558">
        <ele>488</ele>
        <time>2011-08-10T06:50:52Z</time>
      </trkpt>
      <trkpt lat="45.44855" lon="5.78562">
        <ele>487</ele>
        <time>2011-08-10T06:51:02Z</time>
      </trkpt>
      <trkpt lat="45.44858" lon="5.78569">
        <ele>489</ele>
        <time>2011-08-10T06:51:15Z</time>
      </trkpt>
      <trkpt lat="45.44857" lon="5.78569">
        <ele>490</ele>
        <time>2011-08-10T06:51:24Z</time>
      </trkpt>
      <trkpt lat="45.44856" lon="5.78579">
        <ele>496</ele>
        <time>2011-08-10T06:51:39Z</time>
      </trkpt>
      <trkpt lat="45.44861" lon="5.78587">
        <ele>522</ele>
        <time>2011-08-10T06:51:56Z</time>
      </trkpt>
      <trkpt lat="45.44862" lon="5.78591">
        <ele>521</ele>
        <time>2011-08-10T06:52:13Z</time>
      </trkpt>
      <trkpt lat="45.44866" lon="5.786">
        <ele>519</ele>
        <time>2011-08-10T06:52:21Z</time>
      </trkpt>
      <trkpt lat="45.44866" lon="5.78603">
        <ele>519</ele>
        <time>2011-08-10T06:52:23Z</time>
      </trkpt>
      <trkpt lat="45.44882" lon="5.78636">
        <ele>519</ele>
        <time>2011-08-10T06:52:41Z</time>
      </trkpt>
      <trkpt lat="45.44887" lon="5.7865">
        <ele>520</ele>
        <time>2011-08-10T06:52:49Z</time>
      </trkpt>
      <trkpt lat="45.4489" lon="5.78659">
        <ele>520</ele>
        <time>2011-08-10T06:52:55Z</time>
      </trkpt>
      <trkpt lat="45.44896" lon="5.78675">
        <ele>539</ele>
        <time>2011-08-10T06:53:06Z</time>
      </trkpt>
      <trkpt lat="45.44903" lon="5.78683">
        <ele>538</ele>
        <time>2011-08-10T06:53:10Z</time>
      </trkpt>
      <trkpt lat="45.44904" lon="5.78686">
        <ele>539</ele>
        <time>2011-08-10T06:53:12Z</time>
      </trkpt>
      <trkpt lat="45.44909" lon="5.787">
        <ele>544</ele>
        <time>2011-08-10T06:53:24Z</time>
      </trkpt>
      <trkpt lat="45.44915" lon="5.78745">
        <ele>550</ele>
        <time>2011-08-10T06:53:47Z</time>
      </trkpt>
      <trkpt lat="45.44919" lon="5.78758">
        <ele>552</ele>
        <time>2011-08-10T06:53:56Z</time>
      </trkpt>
      <trkpt lat="45.4493" lon="5.78768">
        <ele>555</ele>
        <time>2011-08-10T06:54:10Z</time>
      </trkpt>
      <trkpt lat="45.44938" lon="5.78782">
        <ele>557</ele>
        <time>2011-08-10T06:54:28Z</time>
      </trkpt>
      <trkpt lat="45.44936" lon="5.78786">
        <ele>558</ele>
        <time>2011-08-10T06:54:32Z</time>
      </trkpt>
      <trkpt lat="45.44956" lon="5.78801">
        <ele>558</ele>
        <time>2011-08-10T06:54:47Z</time>
      </trkpt>
      <trkpt lat="45.44957" lon="5.7882">
        <ele>559</ele>
        <time>2011-08-10T06:54:58Z</time>
      </trkpt>
      <trkpt lat="45.44961" lon="5.78822">
        <ele>558</ele>
        <time>2011-08-10T06:55:04Z</time>
      </trkpt>
      <trkpt lat="45.44976" lon="5.78828">
        <ele>556</ele>
        <time>2011-08-10T06:55:20Z</time>
      </trkpt>
      <trkpt lat="45.44976" lon="5.7883">
        <ele>556</ele>
        <time>2011-08-10T06:55:21Z</time>
      </trkpt>
      <trkpt lat="45.44986" lon="5.78868">
        <ele>564</ele>
        <time>2011-08-10T06:55:37Z</time>
      </trkpt>
      <trkpt lat="45.44995" lon="5.78885">
        <ele>565</ele>
        <time>2011-08-10T06:55:46Z</time>
      </trkpt>
      <trkpt lat="45.45" lon="5.78907">
        <ele>562</ele>
        <time>2011-08-10T06:55:59Z</time>
      </trkpt>
      <trkpt lat="45.45001" lon="5.78911">
        <ele>562</ele>
        <time>2011-08-10T06:56:02Z</time>
      </trkpt>
      <trkpt lat="45.45002" lon="5.78921">
        <ele>562</ele>
        <time>2011-08-10T06:56:08Z</time>
      </trkpt>
      <trkpt lat="45.45006" lon="5.78931">
        <ele>565</ele>
        <time>2011-08-10T06:56:15Z</time>
      </trkpt>
      <trkpt lat="45.45014" lon="5.78944">
        <ele>567</ele>
        <time>2011-08-10T06:56:27Z</time>
      </trkpt>
      <trkpt lat="45.45026" lon="5.78961">
        <ele>569</ele>
        <time>2011-08-10T06:56:42Z</time>
      </trkpt>
      <trkpt lat="45.45039" lon="5.78992">
        <ele>570</ele>
        <time>2011-08-10T06:56:54Z</time>
      </trkpt>
      <trkpt lat="45.45047" lon="5.79016">
        <ele>573</ele>
        <time>2011-08-10T06:57:10Z</time>
      </trkpt>
      <trkpt lat="45.45052" lon="5.7904">
        <ele>574</ele>
        <time>2011-08-10T06:57:23Z</time>
      </trkpt>
      <trkpt lat="45.45052" lon="5.79047">
        <ele>574</ele>
        <time>2011-08-10T06:57:27Z</time>
      </trkpt>
      <trkpt lat="45.45057" lon="5.79062">
        <ele>573</ele>
        <time>2011-08-10T06:57:40Z</time>
      </trkpt>
      <trkpt lat="45.45068" lon="5.79082">
        <ele>570</ele>
        <time>2011-08-10T06:57:55Z</time>
      </trkpt>
      <trkpt lat="45.45071" lon="5.79083">
        <ele>570</ele>
        <time>2011-08-10T06:57:57Z</time>
      </trkpt>
      <trkpt lat="45.45083" lon="5.79088">
        <ele>567</ele>
        <time>2011-08-10T06:58:16Z</time>
      </trkpt>
      <trkpt lat="45.4509" lon="5.79093">
        <ele>569</ele>
        <time>2011-08-10T07:00:31Z</time>
      </trkpt>
      <trkpt lat="45.45119" lon="5.79123">
        <ele>572</ele>
        <time>2011-08-10T07:00:57Z</time>
      </trkpt>
      <trkpt lat="45.45146" lon="5.7913">
        <ele>572</ele>
        <time>2011-08-10T07:01:09Z</time>
      </trkpt>
      <trkpt lat="45.45147" lon="5.7913">
        <ele>572</ele>
        <time>2011-08-10T07:01:10Z</time>
      </trkpt>
      <trkpt lat="45.4518" lon="5.79146">
        <ele>573</ele>
        <time>2011-08-10T07:01:25Z</time>
      </trkpt>
      <trkpt lat="45.45218" lon="5.7916">
        <ele>574</ele>
        <time>2011-08-10T07:01:41Z</time>
      </trkpt>
      <trkpt lat="45.45223" lon="5.79164">
        <ele>574</ele>
        <time>2011-08-10T07:01:44Z</time>
      </trkpt>
      <trkpt lat="45.45231" lon="5.79166">
        <ele>573</ele>
        <time>2011-08-10T07:01:48Z</time>
      </trkpt>
      <trkpt lat="45.45242" lon="5.79164">
        <ele>572</ele>
        <time>2011-08-10T07:01:54Z</time>
      </trkpt>
      <trkpt lat="45.45266" lon="5.79171">
        <ele>576</ele>
        <time>2011-08-10T07:02:05Z</time>
      </trkpt>
      <trkpt lat="45.45295" lon="5.79174">
        <ele>581</ele>
        <time>2011-08-10T07:02:16Z</time>
      </trkpt>
      <trkpt lat="45.4533" lon="5.79182">
        <ele>583</ele>
        <time>2011-08-10T07:02:28Z</time>
      </trkpt>
      <trkpt lat="45.45333" lon="5.7919">
        <ele>583</ele>
        <time>2011-08-10T07:02:29Z</time>
      </trkpt>
      <trkpt lat="45.4534" lon="5.79202">
        <ele>593</ele>
        <time>2011-08-10T07:02:33Z</time>
      </trkpt>
      <trkpt lat="45.45345" lon="5.7921">
        <ele>593</ele>
        <time>2011-08-10T07:02:48Z</time>
      </trkpt>
      <trkpt lat="45.45345" lon="5.79216">
        <ele>593</ele>
        <time>2011-08-10T07:02:50Z</time>
      </trkpt>
      <trkpt lat="45.45347" lon="5.79229">
        <ele>593</ele>
        <time>2011-08-10T07:02:54Z</time>
      </trkpt>
      <trkpt lat="45.45356" lon="5.79305">
        <ele>592</ele>
        <time>2011-08-10T07:03:14Z</time>
      </trkpt>
      <trkpt lat="45.45358" lon="5.79313">
        <ele>592</ele>
        <time>2011-08-10T07:03:16Z</time>
      </trkpt>
      <trkpt lat="45.45362" lon="5.79339">
        <ele>590</ele>
        <time>2011-08-10T07:03:25Z</time>
      </trkpt>
      <trkpt lat="45.45363" lon="5.79347">
        <ele>590</ele>
        <time>2011-08-10T07:03:29Z</time>
      </trkpt>
      <trkpt lat="45.45381" lon="5.79401">
        <ele>589</ele>
        <time>2011-08-10T07:03:45Z</time>
      </trkpt>
      <trkpt lat="45.4541" lon="5.79468">
        <ele>585</ele>
        <time>2011-08-10T07:04:02Z</time>
      </trkpt>
      <trkpt lat="45.45429" lon="5.79533">
        <ele>588</ele>
        <time>2011-08-10T07:04:18Z</time>
      </trkpt>
      <trkpt lat="45.45421" lon="5.79626">
        <ele>587</ele>
        <time>2011-08-10T07:04:38Z</time>
      </trkpt>
      <trkpt lat="45.45401" lon="5.79682">
        <ele>583</ele>
        <time>2011-08-10T07:04:51Z</time>
      </trkpt>
      <trkpt lat="45.45373" lon="5.79742">
        <ele>584</ele>
        <time>2011-08-10T07:05:07Z</time>
      </trkpt>
      <trkpt lat="45.45345" lon="5.7979">
        <ele>584</ele>
        <time>2011-08-10T07:05:22Z</time>
      </trkpt>
      <trkpt lat="45.45335" lon="5.79803">
        <ele>583</ele>
        <time>2011-08-10T07:05:27Z</time>
      </trkpt>
      <trkpt lat="45.45304" lon="5.7986">
        <ele>581</ele>
        <time>2011-08-10T07:05:44Z</time>
      </trkpt>
      <trkpt lat="45.45283" lon="5.79958">
        <ele>579</ele>
        <time>2011-08-10T07:06:07Z</time>
      </trkpt>
      <trkpt lat="45.45287" lon="5.80018">
        <ele>576</ele>
        <time>2011-08-10T07:06:24Z</time>
      </trkpt>
      <trkpt lat="45.4528" lon="5.80028">
        <ele>576</ele>
        <time>2011-08-10T07:06:33Z</time>
      </trkpt>
      <trkpt lat="45.45278" lon="5.80034">
        <ele>576</ele>
        <time>2011-08-10T07:06:38Z</time>
      </trkpt>
      <trkpt lat="45.45262" lon="5.80031">
        <ele>576</ele>
        <time>2011-08-10T07:06:44Z</time>
      </trkpt>
      <trkpt lat="45.45237" lon="5.80018">
        <ele>574</ele>
        <time>2011-08-10T07:06:52Z</time>
      </trkpt>
      <trkpt lat="45.452" lon="5.80033">
        <ele>572</ele>
        <time>2011-08-10T07:07:03Z</time>
      </trkpt>
      <trkpt lat="45.45182" lon="5.80032">
        <ele>571</ele>
        <time>2011-08-10T07:07:07Z</time>
      </trkpt>
      <trkpt lat="45.45108" lon="5.80027">
        <ele>571</ele>
        <time>2011-08-10T07:07:26Z</time>
      </trkpt>
      <trkpt lat="45.45071" lon="5.80055">
        <ele>572</ele>
        <time>2011-08-10T07:07:39Z</time>
      </trkpt>
      <trkpt lat="45.45054" lon="5.80055">
        <ele>572</ele>
        <time>2011-08-10T07:07:43Z</time>
      </trkpt>
      <trkpt lat="45.45021" lon="5.80082">
        <ele>573</ele>
        <time>2011-08-10T07:07:50Z</time>
      </trkpt>
      <trkpt lat="45.45008" lon="5.80107">
        <ele>574</ele>
        <time>2011-08-10T07:07:54Z</time>
      </trkpt>
      <trkpt lat="45.44987" lon="5.80152">
        <ele>591</ele>
        <time>2011-08-10T07:08:06Z</time>
      </trkpt>
      <trkpt lat="45.44987" lon="5.80154">
        <ele>590</ele>
        <time>2011-08-10T07:08:07Z</time>
      </trkpt>
      <trkpt lat="45.44985" lon="5.80165">
        <ele>590</ele>
        <time>2011-08-10T07:08:12Z</time>
      </trkpt>
      <trkpt lat="45.44984" lon="5.80173">
        <ele>596</ele>
        <time>2011-08-10T07:08:16Z</time>
      </trkpt>
      <trkpt lat="45.44984" lon="5.80179">
        <ele>598</ele>
        <time>2011-08-10T07:08:19Z</time>
      </trkpt>
      <trkpt lat="45.44981" lon="5.80191">
        <ele>602</ele>
        <time>2011-08-10T07:08:25Z</time>
      </trkpt>
      <trkpt lat="45.44977" lon="5.80204">
        <ele>605</ele>
        <time>2011-08-10T07:08:33Z</time>
      </trkpt>
      <trkpt lat="45.44972" lon="5.8022">
        <ele>607</ele>
        <time>2011-08-10T07:08:40Z</time>
      </trkpt>
      <trkpt lat="45.4497" lon="5.80232">
        <ele>609</ele>
        <time>2011-08-10T07:08:45Z</time>
      </trkpt>
      <trkpt lat="45.44968" lon="5.8024">
        <ele>609</ele>
        <time>2011-08-10T07:08:49Z</time>
      </trkpt>
      <trkpt lat="45.44965" lon="5.80249">
        <ele>610</ele>
        <time>2011-08-10T07:08:54Z</time>
      </trkpt>
      <trkpt lat="45.44966" lon="5.80256">
        <ele>614</ele>
        <time>2011-08-10T07:08:57Z</time>
      </trkpt>
      <trkpt lat="45.44969" lon="5.80267">
        <ele>613</ele>
        <time>2011-08-10T07:09:03Z</time>
      </trkpt>
      <trkpt lat="45.44965" lon="5.80292">
        <ele>615</ele>
        <time>2011-08-10T07:09:15Z</time>
      </trkpt>
      <trkpt lat="45.44955" lon="5.80315">
        <ele>616</ele>
        <time>2011-08-10T07:09:28Z</time>
      </trkpt>
      <trkpt lat="45.44951" lon="5.80322">
        <ele>617</ele>
        <time>2011-08-10T07:09:41Z</time>
      </trkpt>
      <trkpt lat="45.4495" lon="5.80326">
        <ele>617</ele>
        <time>2011-08-10T07:09:47Z</time>
      </trkpt>
      <trkpt lat="45.44926" lon="5.80353">
        <ele>621</ele>
        <time>2011-08-10T07:10:04Z</time>
      </trkpt>
      <trkpt lat="45.44903" lon="5.80369">
        <ele>625</ele>
        <time>2011-08-10T07:10:17Z</time>
      </trkpt>
      <trkpt lat="45.44886" lon="5.8038">
        <ele>625</ele>
        <time>2011-08-10T07:10:29Z</time>
      </trkpt>
      <trkpt lat="45.44883" lon="5.80387">
        <ele>625</ele>
        <time>2011-08-10T07:10:34Z</time>
      </trkpt>
      <trkpt lat="45.44865" lon="5.80391">
        <ele>624</ele>
        <time>2011-08-10T07:10:42Z</time>
      </trkpt>
      <trkpt lat="45.44854" lon="5.80396">
        <ele>624</ele>
        <time>2011-08-10T07:10:48Z</time>
      </trkpt>
      <trkpt lat="45.44843" lon="5.80402">
        <ele>623</ele>
        <time>2011-08-10T07:10:53Z</time>
      </trkpt>
      <trkpt lat="45.44828" lon="5.80419">
        <ele>623</ele>
        <time>2011-08-10T07:11:05Z</time>
      </trkpt>
      <trkpt lat="45.44805" lon="5.8043">
        <ele>630</ele>
        <time>2011-08-10T07:11:13Z</time>
      </trkpt>
      <trkpt lat="45.44805" lon="5.80439">
        <ele>630</ele>
        <time>2011-08-10T07:11:16Z</time>
      </trkpt>
      <trkpt lat="45.44806" lon="5.80445">
        <ele>631</ele>
        <time>2011-08-10T07:11:19Z</time>
      </trkpt>
      <trkpt lat="45.4481" lon="5.80457">
        <ele>631</ele>
        <time>2011-08-10T07:11:32Z</time>
      </trkpt>
      <trkpt lat="45.44812" lon="5.80457">
        <ele>631</ele>
        <time>2011-08-10T07:12:13Z</time>
      </trkpt>
      <trkpt lat="45.44813" lon="5.80455">
        <ele>631</ele>
        <time>2011-08-10T07:12:15Z</time>
      </trkpt>
      <trkpt lat="45.44819" lon="5.80452">
        <ele>630</ele>
        <time>2011-08-10T07:12:20Z</time>
      </trkpt>
      <trkpt lat="45.44827" lon="5.80448">
        <ele>629</ele>
        <time>2011-08-10T07:12:28Z</time>
      </trkpt>
      <trkpt lat="45.44834" lon="5.80453">
        <ele>623</ele>
        <time>2011-08-10T07:12:40Z</time>
      </trkpt>
      <trkpt lat="45.44841" lon="5.80459">
        <ele>624</ele>
        <time>2011-08-10T07:12:53Z</time>
      </trkpt>
      <trkpt lat="45.44847" lon="5.80459">
        <ele>624</ele>
        <time>2011-08-10T07:13:05Z</time>
      </trkpt>
      <trkpt lat="45.44852" lon="5.80463">
        <ele>624</ele>
        <time>2011-08-10T07:13:15Z</time>
      </trkpt>
      <trkpt lat="45.44868" lon="5.80487">
        <ele>625</ele>
        <time>2011-08-10T07:13:33Z</time>
      </trkpt>
      <trkpt lat="45.44903" lon="5.80505">
        <ele>629</ele>
        <time>2011-08-10T07:14:02Z</time>
      </trkpt>
      <trkpt lat="45.44911" lon="5.80509">
        <ele>628</ele>
        <time>2011-08-10T07:14:12Z</time>
      </trkpt>
      <trkpt lat="45.44918" lon="5.8052">
        <ele>631</ele>
        <time>2011-08-10T07:14:23Z</time>
      </trkpt>
      <trkpt lat="45.44921" lon="5.80527">
        <ele>632</ele>
        <time>2011-08-10T07:14:26Z</time>
      </trkpt>
      <trkpt lat="45.4493" lon="5.80542">
        <ele>633</ele>
        <time>2011-08-10T07:14:39Z</time>
      </trkpt>
      <trkpt lat="45.44933" lon="5.80542">
        <ele>633</ele>
        <time>2011-08-10T07:14:40Z</time>
      </trkpt>
      <trkpt lat="45.44944" lon="5.80549">
        <ele>634</ele>
        <time>2011-08-10T07:14:51Z</time>
      </trkpt>
      <trkpt lat="45.44951" lon="5.80551">
        <ele>634</ele>
        <time>2011-08-10T07:14:57Z</time>
      </trkpt>
      <trkpt lat="45.44976" lon="5.80559">
        <ele>636</ele>
        <time>2011-08-10T07:15:15Z</time>
      </trkpt>
      <trkpt lat="45.4501" lon="5.80558">
        <ele>641</ele>
        <time>2011-08-10T07:15:33Z</time>
      </trkpt>
      <trkpt lat="45.45012" lon="5.80562">
        <ele>641</ele>
        <time>2011-08-10T07:15:35Z</time>
      </trkpt>
      <trkpt lat="45.45017" lon="5.80576">
        <ele>642</ele>
        <time>2011-08-10T07:15:45Z</time>
      </trkpt>
      <trkpt lat="45.45003" lon="5.80596">
        <ele>645</ele>
        <time>2011-08-10T07:15:58Z</time>
      </trkpt>
      <trkpt lat="45.44997" lon="5.80619">
        <ele>644</ele>
        <time>2011-08-10T07:16:11Z</time>
      </trkpt>
      <trkpt lat="45.44992" lon="5.80637">
        <ele>645</ele>
        <time>2011-08-10T07:16:23Z</time>
      </trkpt>
      <trkpt lat="45.45007" lon="5.80636">
        <ele>649</ele>
        <time>2011-08-10T07:16:35Z</time>
      </trkpt>
      <trkpt lat="45.45021" lon="5.80639">
        <ele>649</ele>
        <time>2011-08-10T07:16:47Z</time>
      </trkpt>
      <trkpt lat="45.45035" lon="5.8065">
        <ele>650</ele>
        <time>2011-08-10T07:16:56Z</time>
      </trkpt>
      <trkpt lat="45.45045" lon="5.80662">
        <ele>650</ele>
        <time>2011-08-10T07:17:04Z</time>
      </trkpt>
      <trkpt lat="45.45051" lon="5.80674">
        <ele>656</ele>
        <time>2011-08-10T07:17:14Z</time>
      </trkpt>
      <trkpt lat="45.45083" lon="5.80699">
        <ele>658</ele>
        <time>2011-08-10T07:17:29Z</time>
      </trkpt>
      <trkpt lat="45.45119" lon="5.80723">
        <ele>654</ele>
        <time>2011-08-10T07:17:45Z</time>
      </trkpt>
      <trkpt lat="45.45132" lon="5.80731">
        <ele>653</ele>
        <time>2011-08-10T07:17:48Z</time>
      </trkpt>
      <trkpt lat="45.45192" lon="5.80766">
        <ele>645</ele>
        <time>2011-08-10T07:18:00Z</time>
      </trkpt>
      <trkpt lat="45.45218" lon="5.80766">
        <ele>643</ele>
        <time>2011-08-10T07:18:05Z</time>
      </trkpt>
      <trkpt lat="45.45229" lon="5.80761">
        <ele>642</ele>
        <time>2011-08-10T07:18:07Z</time>
      </trkpt>
      <trkpt lat="45.45262" lon="5.80781">
        <ele>638</ele>
        <time>2011-08-10T07:18:13Z</time>
      </trkpt>
      <trkpt lat="45.45311" lon="5.80845">
        <ele>638</ele>
        <time>2011-08-10T07:18:21Z</time>
      </trkpt>
      <trkpt lat="45.45381" lon="5.80955">
        <ele>632</ele>
        <time>2011-08-10T07:18:33Z</time>
      </trkpt>
      <trkpt lat="45.45398" lon="5.80977">
        <ele>631</ele>
        <time>2011-08-10T07:18:36Z</time>
      </trkpt>
      <trkpt lat="45.45456" lon="5.81028">
        <ele>623</ele>
        <time>2011-08-10T07:18:46Z</time>
      </trkpt>
      <trkpt lat="45.45476" lon="5.81038">
        <ele>622</ele>
        <time>2011-08-10T07:18:49Z</time>
      </trkpt>
      <trkpt lat="45.45495" lon="5.81056">
        <ele>620</ele>
        <time>2011-08-10T07:18:53Z</time>
      </trkpt>
      <trkpt lat="45.4552" lon="5.81084">
        <ele>612</ele>
        <time>2011-08-10T07:18:57Z</time>
      </trkpt>
      <trkpt lat="45.45613" lon="5.81161">
        <ele>605</ele>
        <time>2011-08-10T07:19:12Z</time>
      </trkpt>
      <trkpt lat="45.45668" lon="5.81199">
        <ele>605</ele>
        <time>2011-08-10T07:19:24Z</time>
      </trkpt>
      <trkpt lat="45.45679" lon="5.81205">
        <ele>606</ele>
        <time>2011-08-10T07:19:27Z</time>
      </trkpt>
      <trkpt lat="45.45684" lon="5.81224">
        <ele>606</ele>
        <time>2011-08-10T07:19:32Z</time>
      </trkpt>
      <trkpt lat="45.45678" lon="5.81316">
        <ele>610</ele>
        <time>2011-08-10T07:19:53Z</time>
      </trkpt>
      <trkpt lat="45.4568" lon="5.81388">
        <ele>615</ele>
        <time>2011-08-10T07:20:10Z</time>
      </trkpt>
      <trkpt lat="45.45665" lon="5.81447">
        <ele>627</ele>
        <time>2011-08-10T07:20:27Z</time>
      </trkpt>
      <trkpt lat="45.45651" lon="5.81477">
        <ele>632</ele>
        <time>2011-08-10T07:20:39Z</time>
      </trkpt>
      <trkpt lat="45.45649" lon="5.81485">
        <ele>632</ele>
        <time>2011-08-10T07:20:41Z</time>
      </trkpt>
      <trkpt lat="45.45646" lon="5.81495">
        <ele>633</ele>
        <time>2011-08-10T07:20:45Z</time>
      </trkpt>
      <trkpt lat="45.45642" lon="5.81515">
        <ele>648</ele>
        <time>2011-08-10T07:20:56Z</time>
      </trkpt>
      <trkpt lat="45.4564" lon="5.81518">
        <ele>649</ele>
        <time>2011-08-10T07:20:58Z</time>
      </trkpt>
      <trkpt lat="45.45639" lon="5.81524">
        <ele>651</ele>
        <time>2011-08-10T07:21:02Z</time>
      </trkpt>
      <trkpt lat="45.45642" lon="5.81544">
        <ele>654</ele>
        <time>2011-08-10T07:21:17Z</time>
      </trkpt>
      <trkpt lat="45.45642" lon="5.81544">
        <ele>654</ele>
        <time>2011-08-10T07:21:34Z</time>
      </trkpt>
      <trkpt lat="45.45644" lon="5.81555">
        <ele>656</ele>
        <time>2011-08-10T07:21:52Z</time>
      </trkpt>
      <trkpt lat="45.45643" lon="5.81556">
        <ele>656</ele>
        <time>2011-08-10T07:21:58Z</time>
      </trkpt>
      <trkpt lat="45.45649" lon="5.8156">
        <ele>656</ele>
        <time>2011-08-10T07:22:11Z</time>
      </trkpt>
      <trkpt lat="45.45652" lon="5.81568">
        <ele>657</ele>
        <time>2011-08-10T07:22:25Z</time>
      </trkpt>
      <trkpt lat="45.4566" lon="5.81573">
        <ele>657</ele>
        <time>2011-08-10T07:22:38Z</time>
      </trkpt>
      <trkpt lat="45.45657" lon="5.81574">
        <ele>657</ele>
        <time>2011-08-10T07:22:51Z</time>
      </trkpt>
      <trkpt lat="45.45661" lon="5.81575">
        <ele>657</ele>
        <time>2011-08-10T07:22:55Z</time>
      </trkpt>
      <trkpt lat="45.4567" lon="5.81584">
        <ele>659</ele>
        <time>2011-08-10T07:23:06Z</time>
      </trkpt>
      <trkpt lat="45.45671" lon="5.81593">
        <ele>662</ele>
        <time>2011-08-10T07:23:17Z</time>
      </trkpt>
      <trkpt lat="45.45679" lon="5.81597">
        <ele>664</ele>
        <time>2011-08-10T07:23:33Z</time>
      </trkpt>
      <trkpt lat="45.45681" lon="5.816">
        <ele>664</ele>
        <time>2011-08-10T07:23:36Z</time>
      </trkpt>
      <trkpt lat="45.45684" lon="5.81603">
        <ele>665</ele>
        <time>2011-08-10T07:23:48Z</time>
      </trkpt>
      <trkpt lat="45.45697" lon="5.8161">
        <ele>666</ele>
        <time>2011-08-10T07:24:02Z</time>
      </trkpt>
      <trkpt lat="45.45698" lon="5.81611">
        <ele>667</ele>
        <time>2011-08-10T07:24:04Z</time>
      </trkpt>
      <trkpt lat="45.45707" lon="5.81621">
        <ele>668</ele>
        <time>2011-08-10T07:24:16Z</time>
      </trkpt>
      <trkpt lat="45.45712" lon="5.81628">
        <ele>669</ele>
        <time>2011-08-10T07:24:32Z</time>
      </trkpt>
      <trkpt lat="45.45719" lon="5.81633">
        <ele>669</ele>
        <time>2011-08-10T07:24:46Z</time>
      </trkpt>
      <trkpt lat="45.4573" lon="5.81641">
        <ele>670</ele>
        <time>2011-08-10T07:25:01Z</time>
      </trkpt>
      <trkpt lat="45.45732" lon="5.81641">
        <ele>670</ele>
        <time>2011-08-10T07:25:03Z</time>
      </trkpt>
      <trkpt lat="45.45745" lon="5.81654">
        <ele>673</ele>
        <time>2011-08-10T07:25:20Z</time>
      </trkpt>
      <trkpt lat="45.45751" lon="5.81667">
        <ele>678</ele>
        <time>2011-08-10T07:25:36Z</time>
      </trkpt>
      <trkpt lat="45.45758" lon="5.81679">
        <ele>681</ele>
        <time>2011-08-10T07:25:52Z</time>
      </trkpt>
      <trkpt lat="45.45762" lon="5.81689">
        <ele>684</ele>
        <time>2011-08-10T07:26:13Z</time>
      </trkpt>
      <trkpt lat="45.45759" lon="5.817">
        <ele>686</ele>
        <time>2011-08-10T07:27:29Z</time>
      </trkpt>
      <trkpt lat="45.4577" lon="5.81705">
        <ele>687</ele>
        <time>2011-08-10T07:27:42Z</time>
      </trkpt>
      <trkpt lat="45.45777" lon="5.81712">
        <ele>688</ele>
        <time>2011-08-10T07:27:53Z</time>
      </trkpt>
      <trkpt lat="45.45778" lon="5.81724">
        <ele>690</ele>
        <time>2011-08-10T07:28:08Z</time>
      </trkpt>
      <trkpt lat="45.45777" lon="5.81737">
        <ele>692</ele>
        <time>2011-08-10T07:28:23Z</time>
      </trkpt>
      <trkpt lat="45.45783" lon="5.81751">
        <ele>709</ele>
        <time>2011-08-10T07:28:44Z</time>
      </trkpt>
      <trkpt lat="45.45785" lon="5.81758">
        <ele>710</ele>
        <time>2011-08-10T07:28:58Z</time>
      </trkpt>
      <trkpt lat="45.45792" lon="5.81764">
        <ele>710</ele>
        <time>2011-08-10T07:29:14Z</time>
      </trkpt>
      <trkpt lat="45.45795" lon="5.8177">
        <ele>710</ele>
        <time>2011-08-10T07:29:30Z</time>
      </trkpt>
      <trkpt lat="45.45807" lon="5.81784">
        <ele>711</ele>
        <time>2011-08-10T07:29:49Z</time>
      </trkpt>
      <trkpt lat="45.4581" lon="5.8179">
        <ele>712</ele>
        <time>2011-08-10T07:30:03Z</time>
      </trkpt>
      <trkpt lat="45.45817" lon="5.81798">
        <ele>713</ele>
        <time>2011-08-10T07:30:17Z</time>
      </trkpt>
      <trkpt lat="45.45824" lon="5.81803">
        <ele>714</ele>
        <time>2011-08-10T07:30:28Z</time>
      </trkpt>
      <trkpt lat="45.45825" lon="5.81809">
        <ele>716</ele>
        <time>2011-08-10T07:31:00Z</time>
      </trkpt>
      <trkpt lat="45.45836" lon="5.81823">
        <ele>714</ele>
        <time>2011-08-10T07:31:14Z</time>
      </trkpt>
      <trkpt lat="45.45845" lon="5.81834">
        <ele>723</ele>
        <time>2011-08-10T07:31:28Z</time>
      </trkpt>
      <trkpt lat="45.45855" lon="5.81846">
        <ele>724</ele>
        <time>2011-08-10T07:31:42Z</time>
      </trkpt>
      <trkpt lat="45.45863" lon="5.81858">
        <ele>725</ele>
        <time>2011-08-10T07:31:58Z</time>
      </trkpt>
      <trkpt lat="45.45864" lon="5.8186">
        <ele>726</ele>
        <time>2011-08-10T07:32:00Z</time>
      </trkpt>
      <trkpt lat="45.45871" lon="5.81868">
        <ele>726</ele>
        <time>2011-08-10T07:32:08Z</time>
      </trkpt>
      <trkpt lat="45.45898" lon="5.81882">
        <ele>725</ele>
        <time>2011-08-10T07:32:23Z</time>
      </trkpt>
      <trkpt lat="45.45905" lon="5.81899">
        <ele>727</ele>
        <time>2011-08-10T07:32:32Z</time>
      </trkpt>
      <trkpt lat="45.45922" lon="5.81927">
        <ele>729</ele>
        <time>2011-08-10T07:32:50Z</time>
      </trkpt>
      <trkpt lat="45.45932" lon="5.81936">
        <ele>731</ele>
        <time>2011-08-10T07:33:00Z</time>
      </trkpt>
      <trkpt lat="45.45948" lon="5.81953">
        <ele>732</ele>
        <time>2011-08-10T07:33:14Z</time>
      </trkpt>
      <trkpt lat="45.45967" lon="5.81974">
        <ele>733</ele>
        <time>2011-08-10T07:33:29Z</time>
      </trkpt>
      <trkpt lat="45.45994" lon="5.82">
        <ele>739</ele>
        <time>2011-08-10T07:33:51Z</time>
      </trkpt>
      <trkpt lat="45.46021" lon="5.82027">
        <ele>739</ele>
        <time>2011-08-10T07:34:13Z</time>
      </trkpt>
      <trkpt lat="45.46042" lon="5.82046">
        <ele>741</ele>
        <time>2011-08-10T07:34:29Z</time>
      </trkpt>
      <trkpt lat="45.46063" lon="5.8206">
        <ele>742</ele>
        <time>2011-08-10T07:34:44Z</time>
      </trkpt>
      <trkpt lat="45.46092" lon="5.82072">
        <ele>738</ele>
        <time>2011-08-10T07:35:03Z</time>
      </trkpt>
      <trkpt lat="45.46117" lon="5.82081">
        <ele>731</ele>
        <time>2011-08-10T07:35:18Z</time>
      </trkpt>
      <trkpt lat="45.4615" lon="5.82099">
        <ele>749</ele>
        <time>2011-08-10T07:35:44Z</time>
      </trkpt>
      <trkpt lat="45.46153" lon="5.82101">
        <ele>749</ele>
        <time>2011-08-10T07:36:03Z</time>
      </trkpt>
      <trkpt lat="45.46156" lon="5.82108">
        <ele>751</ele>
        <time>2011-08-10T07:36:18Z</time>
      </trkpt>
      <trkpt lat="45.46156" lon="5.82108">
        <ele>751</ele>
        <time>2011-08-10T07:37:56Z</time>
      </trkpt>
      <trkpt lat="45.46164" lon="5.82115">
        <ele>752</ele>
        <time>2011-08-10T07:38:17Z</time>
      </trkpt>
      <trkpt lat="45.46185" lon="5.82131">
        <ele>746</ele>
        <time>2011-08-10T07:38:35Z</time>
      </trkpt>
      <trkpt lat="45.46207" lon="5.8215">
        <ele>747</ele>
        <time>2011-08-10T07:38:55Z</time>
      </trkpt>
      <trkpt lat="45.46232" lon="5.82178">
        <ele>764</ele>
        <time>2011-08-10T07:39:18Z</time>
      </trkpt>
      <trkpt lat="45.46249" lon="5.82195">
        <ele>767</ele>
        <time>2011-08-10T07:39:33Z</time>
      </trkpt>
      <trkpt lat="45.46269" lon="5.82217">
        <ele>757</ele>
        <time>2011-08-10T07:39:51Z</time>
      </trkpt>
      <trkpt lat="45.46282" lon="5.8223">
        <ele>757</ele>
        <time>2011-08-10T07:40:04Z</time>
      </trkpt>
      <trkpt lat="45.46296" lon="5.82247">
        <ele>755</ele>
        <time>2011-08-10T07:40:17Z</time>
      </trkpt>
      <trkpt lat="45.46297" lon="5.8225">
        <ele>755</ele>
        <time>2011-08-10T07:40:19Z</time>
      </trkpt>
      <trkpt lat="45.46307" lon="5.8226">
        <ele>770</ele>
        <time>2011-08-10T07:40:28Z</time>
      </trkpt>
      <trkpt lat="45.46318" lon="5.82274">
        <ele>770</ele>
        <time>2011-08-10T07:40:40Z</time>
      </trkpt>
      <trkpt lat="45.46323" lon="5.82278">
        <ele>771</ele>
        <time>2011-08-10T07:40:43Z</time>
      </trkpt>
      <trkpt lat="45.46332" lon="5.8229">
        <ele>773</ele>
        <time>2011-08-10T07:40:51Z</time>
      </trkpt>
      <trkpt lat="45.46335" lon="5.82295">
        <ele>758</ele>
        <time>2011-08-10T07:40:54Z</time>
      </trkpt>
      <trkpt lat="45.46341" lon="5.82299">
        <ele>759</ele>
        <time>2011-08-10T07:40:59Z</time>
      </trkpt>
      <trkpt lat="45.46358" lon="5.82327">
        <ele>762</ele>
        <time>2011-08-10T07:41:17Z</time>
      </trkpt>
      <trkpt lat="45.46364" lon="5.82336">
        <ele>773</ele>
        <time>2011-08-10T07:41:23Z</time>
      </trkpt>
      <trkpt lat="45.46378" lon="5.82362">
        <ele>772</ele>
        <time>2011-08-10T07:41:39Z</time>
      </trkpt>
      <trkpt lat="45.46382" lon="5.82368">
        <ele>772</ele>
        <time>2011-08-10T07:41:43Z</time>
      </trkpt>
      <trkpt lat="45.46398" lon="5.82406">
        <ele>772</ele>
        <time>2011-08-10T07:42:05Z</time>
      </trkpt>
      <trkpt lat="45.46408" lon="5.82432">
        <ele>775</ele>
        <time>2011-08-10T07:42:19Z</time>
      </trkpt>
      <trkpt lat="45.46412" lon="5.82451">
        <ele>778</ele>
        <time>2011-08-10T07:42:28Z</time>
      </trkpt>
      <trkpt lat="45.4641" lon="5.8249">
        <ele>778</ele>
        <time>2011-08-10T07:42:47Z</time>
      </trkpt>
      <trkpt lat="45.46409" lon="5.82499">
        <ele>777</ele>
        <time>2011-08-10T07:42:51Z</time>
      </trkpt>
      <trkpt lat="45.464" lon="5.82505">
        <ele>780</ele>
        <time>2011-08-10T07:42:59Z</time>
      </trkpt>
      <trkpt lat="45.46375" lon="5.8251">
        <ele>784</ele>
        <time>2011-08-10T07:43:19Z</time>
      </trkpt>
      <trkpt lat="45.46367" lon="5.82512">
        <ele>785</ele>
        <time>2011-08-10T07:43:25Z</time>
      </trkpt>
      <trkpt lat="45.46358" lon="5.82506">
        <ele>786</ele>
        <time>2011-08-10T07:43:41Z</time>
      </trkpt>
      <trkpt lat="45.46332" lon="5.82481">
        <ele>792</ele>
        <time>2011-08-10T07:43:59Z</time>
      </trkpt>
      <trkpt lat="45.46319" lon="5.82472">
        <ele>793</ele>
        <time>2011-08-10T07:44:13Z</time>
      </trkpt>
      <trkpt lat="45.46304" lon="5.82463">
        <ele>795</ele>
        <time>2011-08-10T07:44:24Z</time>
      </trkpt>
      <trkpt lat="45.46286" lon="5.82456">
        <ele>796</ele>
        <time>2011-08-10T07:44:38Z</time>
      </trkpt>
      <trkpt lat="45.46282" lon="5.82451">
        <ele>797</ele>
        <time>2011-08-10T07:44:41Z</time>
      </trkpt>
      <trkpt lat="45.46274" lon="5.82437">
        <ele>798</ele>
        <time>2011-08-10T07:44:55Z</time>
      </trkpt>
      <trkpt lat="45.46267" lon="5.82431">
        <ele>799</ele>
        <time>2011-08-10T07:45:00Z</time>
      </trkpt>
      <trkpt lat="45.46257" lon="5.82425">
        <ele>801</ele>
        <time>2011-08-10T07:45:06Z</time>
      </trkpt>
      <trkpt lat="45.46243" lon="5.8242">
        <ele>805</ele>
        <time>2011-08-10T07:45:16Z</time>
      </trkpt>
      <trkpt lat="45.46221" lon="5.82413">
        <ele>806</ele>
        <time>2011-08-10T07:45:31Z</time>
      </trkpt>
      <trkpt lat="45.46208" lon="5.82408">
        <ele>807</ele>
        <time>2011-08-10T07:45:43Z</time>
      </trkpt>
      <trkpt lat="45.46203" lon="5.82406">
        <ele>808</ele>
        <time>2011-08-10T07:45:47Z</time>
      </trkpt>
      <trkpt lat="45.46199" lon="5.82402">
        <ele>808</ele>
        <time>2011-08-10T07:45:51Z</time>
      </trkpt>
      <trkpt lat="45.46186" lon="5.82394">
        <ele>809</ele>
        <time>2011-08-10T07:46:03Z</time>
      </trkpt>
      <trkpt lat="45.46173" lon="5.82384">
        <ele>809</ele>
        <time>2011-08-10T07:46:17Z</time>
      </trkpt>
      <trkpt lat="45.46166" lon="5.82381">
        <ele>816</ele>
        <time>2011-08-10T07:46:21Z</time>
      </trkpt>
      <trkpt lat="45.46151" lon="5.82374">
        <ele>816</ele>
        <time>2011-08-10T07:46:36Z</time>
      </trkpt>
      <trkpt lat="45.46142" lon="5.82371">
        <ele>817</ele>
        <time>2011-08-10T07:46:45Z</time>
      </trkpt>
      <trkpt lat="45.46121" lon="5.82361">
        <ele>818</ele>
        <time>2011-08-10T07:46:57Z</time>
      </trkpt>
      <trkpt lat="45.46101" lon="5.82354">
        <ele>820</ele>
        <time>2011-08-10T07:47:11Z</time>
      </trkpt>
      <trkpt lat="45.46089" lon="5.82351">
        <ele>821</ele>
        <time>2011-08-10T07:47:23Z</time>
      </trkpt>
      <trkpt lat="45.46068" lon="5.82354">
        <ele>829</ele>
        <time>2011-08-10T07:47:36Z</time>
      </trkpt>
      <trkpt lat="45.46054" lon="5.82353">
        <ele>830</ele>
        <time>2011-08-10T07:47:46Z</time>
      </trkpt>
      <trkpt lat="45.46043" lon="5.82348">
        <ele>831</ele>
        <time>2011-08-10T07:48:02Z</time>
      </trkpt>
      <trkpt lat="45.46031" lon="5.82338">
        <ele>832</ele>
        <time>2011-08-10T07:48:11Z</time>
      </trkpt>
      <trkpt lat="45.46009" lon="5.82324">
        <ele>829</ele>
        <time>2011-08-10T07:48:26Z</time>
      </trkpt>
      <trkpt lat="45.45999" lon="5.82311">
        <ele>834</ele>
        <time>2011-08-10T07:48:36Z</time>
      </trkpt>
      <trkpt lat="45.45982" lon="5.82296">
        <ele>834</ele>
        <time>2011-08-10T07:48:47Z</time>
      </trkpt>
      <trkpt lat="45.45974" lon="5.82293">
        <ele>834</ele>
        <time>2011-08-10T07:48:55Z</time>
      </trkpt>
      <trkpt lat="45.45953" lon="5.82291">
        <ele>836</ele>
        <time>2011-08-10T07:49:08Z</time>
      </trkpt>
      <trkpt lat="45.45943" lon="5.82289">
        <ele>837</ele>
        <time>2011-08-10T07:49:23Z</time>
      </trkpt>
      <trkpt lat="45.45933" lon="5.82284">
        <ele>837</ele>
        <time>2011-08-10T07:49:38Z</time>
      </trkpt>
      <trkpt lat="45.45925" lon="5.82276">
        <ele>837</ele>
        <time>2011-08-10T07:49:52Z</time>
      </trkpt>
      <trkpt lat="45.45913" lon="5.82269">
        <ele>845</ele>
        <time>2011-08-10T07:50:09Z</time>
      </trkpt>
      <trkpt lat="45.45912" lon="5.82268">
        <ele>845</ele>
        <time>2011-08-10T07:50:18Z</time>
      </trkpt>
      <trkpt lat="45.45906" lon="5.82262">
        <ele>845</ele>
        <time>2011-08-10T07:50:26Z</time>
      </trkpt>
      <trkpt lat="45.45903" lon="5.82262">
        <ele>845</ele>
        <time>2011-08-10T07:50:28Z</time>
      </trkpt>
      <trkpt lat="45.45891" lon="5.82252">
        <ele>847</ele>
        <time>2011-08-10T07:50:41Z</time>
      </trkpt>
      <trkpt lat="45.45883" lon="5.82245">
        <ele>838</ele>
        <time>2011-08-10T07:50:54Z</time>
      </trkpt>
      <trkpt lat="45.45882" lon="5.82244">
        <ele>838</ele>
        <time>2011-08-10T07:50:56Z</time>
      </trkpt>
      <trkpt lat="45.45867" lon="5.82235">
        <ele>840</ele>
        <time>2011-08-10T07:51:12Z</time>
      </trkpt>
      <trkpt lat="45.45868" lon="5.82233">
        <ele>839</ele>
        <time>2011-08-10T07:51:28Z</time>
      </trkpt>
      <trkpt lat="45.45869" lon="5.82234">
        <ele>839</ele>
        <time>2011-08-10T07:52:06Z</time>
      </trkpt>
      <trkpt lat="45.45865" lon="5.82235">
        <ele>840</ele>
        <time>2011-08-10T07:53:07Z</time>
      </trkpt>
      <trkpt lat="45.45858" lon="5.8223">
        <ele>841</ele>
        <time>2011-08-10T07:53:23Z</time>
      </trkpt>
      <trkpt lat="45.45848" lon="5.82219">
        <ele>840</ele>
        <time>2011-08-10T07:53:32Z</time>
      </trkpt>
      <trkpt lat="45.45836" lon="5.82209">
        <ele>839</ele>
        <time>2011-08-10T07:53:44Z</time>
      </trkpt>
      <trkpt lat="45.45823" lon="5.82202">
        <ele>850</ele>
        <time>2011-08-10T07:53:58Z</time>
      </trkpt>
      <trkpt lat="45.45815" lon="5.822">
        <ele>850</ele>
        <time>2011-08-10T07:54:03Z</time>
      </trkpt>
      <trkpt lat="45.45805" lon="5.82193">
        <ele>851</ele>
        <time>2011-08-10T07:54:11Z</time>
      </trkpt>
      <trkpt lat="45.45791" lon="5.8218">
        <ele>852</ele>
        <time>2011-08-10T07:54:24Z</time>
      </trkpt>
      <trkpt lat="45.45783" lon="5.82172">
        <ele>853</ele>
        <time>2011-08-10T07:54:29Z</time>
      </trkpt>
      <trkpt lat="45.45779" lon="5.82169">
        <ele>853</ele>
        <time>2011-08-10T07:54:34Z</time>
      </trkpt>
      <trkpt lat="45.45766" lon="5.8216">
        <ele>845</ele>
        <time>2011-08-10T07:54:47Z</time>
      </trkpt>
      <trkpt lat="45.45745" lon="5.82148">
        <ele>858</ele>
        <time>2011-08-10T07:55:04Z</time>
      </trkpt>
      <trkpt lat="45.45726" lon="5.82143">
        <ele>858</ele>
        <time>2011-08-10T07:55:20Z</time>
      </trkpt>
      <trkpt lat="45.4572" lon="5.82137">
        <ele>859</ele>
        <time>2011-08-10T07:55:25Z</time>
      </trkpt>
      <trkpt lat="45.45706" lon="5.82128">
        <ele>860</ele>
        <time>2011-08-10T07:55:36Z</time>
      </trkpt>
      <trkpt lat="45.457" lon="5.82123">
        <ele>860</ele>
        <time>2011-08-10T07:55:41Z</time>
      </trkpt>
      <trkpt lat="45.45698" lon="5.82122">
        <ele>860</ele>
        <time>2011-08-10T07:55:43Z</time>
      </trkpt>
      <trkpt lat="45.45689" lon="5.82111">
        <ele>861</ele>
        <time>2011-08-10T07:55:52Z</time>
      </trkpt>
      <trkpt lat="45.45678" lon="5.82101">
        <ele>862</ele>
        <time>2011-08-10T07:56:03Z</time>
      </trkpt>
      <trkpt lat="45.45677" lon="5.82098">
        <ele>862</ele>
        <time>2011-08-10T07:56:07Z</time>
      </trkpt>
      <trkpt lat="45.45671" lon="5.82093">
        <ele>863</ele>
        <time>2011-08-10T07:56:15Z</time>
      </trkpt>
      <trkpt lat="45.45662" lon="5.82088">
        <ele>869</ele>
        <time>2011-08-10T07:56:21Z</time>
      </trkpt>
      <trkpt lat="45.45645" lon="5.82075">
        <ele>867</ele>
        <time>2011-08-10T07:56:32Z</time>
      </trkpt>
      <trkpt lat="45.45629" lon="5.82065">
        <ele>869</ele>
        <time>2011-08-10T07:56:44Z</time>
      </trkpt>
      <trkpt lat="45.4561" lon="5.82048">
        <ele>870</ele>
        <time>2011-08-10T07:56:57Z</time>
      </trkpt>
      <trkpt lat="45.45609" lon="5.82047">
        <ele>870</ele>
        <time>2011-08-10T07:57:00Z</time>
      </trkpt>
      <trkpt lat="45.45591" lon="5.82042">
        <ele>872</ele>
        <time>2011-08-10T07:57:12Z</time>
      </trkpt>
      <trkpt lat="45.4559" lon="5.82042">
        <ele>872</ele>
        <time>2011-08-10T07:57:13Z</time>
      </trkpt>
      <trkpt lat="45.45586" lon="5.82041">
        <ele>872</ele>
        <time>2011-08-10T07:57:16Z</time>
      </trkpt>
      <trkpt lat="45.4558" lon="5.8204">
        <ele>888</ele>
        <time>2011-08-10T07:57:21Z</time>
      </trkpt>
      <trkpt lat="45.45563" lon="5.82032">
        <ele>889</ele>
        <time>2011-08-10T07:57:31Z</time>
      </trkpt>
      <trkpt lat="45.45552" lon="5.82019">
        <ele>889</ele>
        <time>2011-08-10T07:57:46Z</time>
      </trkpt>
      <trkpt lat="45.45542" lon="5.82006">
        <ele>890</ele>
        <time>2011-08-10T07:57:59Z</time>
      </trkpt>
      <trkpt lat="45.45527" lon="5.81991">
        <ele>879</ele>
        <time>2011-08-10T07:58:12Z</time>
      </trkpt>
      <trkpt lat="45.45516" lon="5.81974">
        <ele>878</ele>
        <time>2011-08-10T07:58:26Z</time>
      </trkpt>
      <trkpt lat="45.45501" lon="5.81965">
        <ele>877</ele>
        <time>2011-08-10T07:58:38Z</time>
      </trkpt>
      <trkpt lat="45.45489" lon="5.81956">
        <ele>894</ele>
        <time>2011-08-10T07:58:56Z</time>
      </trkpt>
      <trkpt lat="45.45479" lon="5.81953">
        <ele>894</ele>
        <time>2011-08-10T07:59:10Z</time>
      </trkpt>
      <trkpt lat="45.45469" lon="5.81947">
        <ele>895</ele>
        <time>2011-08-10T07:59:23Z</time>
      </trkpt>
      <trkpt lat="45.4546" lon="5.81942">
        <ele>896</ele>
        <time>2011-08-10T07:59:36Z</time>
      </trkpt>
      <trkpt lat="45.45448" lon="5.81933">
        <ele>898</ele>
        <time>2011-08-10T07:59:54Z</time>
      </trkpt>
      <trkpt lat="45.45446" lon="5.81929">
        <ele>899</ele>
        <time>2011-08-10T08:00:06Z</time>
      </trkpt>
      <trkpt lat="45.4544" lon="5.81925">
        <ele>900</ele>
        <time>2011-08-10T08:01:48Z</time>
      </trkpt>
      <trkpt lat="45.45437" lon="5.81922">
        <ele>901</ele>
        <time>2011-08-10T08:04:29Z</time>
      </trkpt>
      <trkpt lat="45.45432" lon="5.81916">
        <ele>895</ele>
        <time>2011-08-10T08:04:42Z</time>
      </trkpt>
      <trkpt lat="45.45428" lon="5.81909">
        <ele>895</ele>
        <time>2011-08-10T08:04:55Z</time>
      </trkpt>
      <trkpt lat="45.45422" lon="5.81903">
        <ele>895</ele>
        <time>2011-08-10T08:05:09Z</time>
      </trkpt>
      <trkpt lat="45.45422" lon="5.81902">
        <ele>895</ele>
        <time>2011-08-10T08:05:11Z</time>
      </trkpt>
      <trkpt lat="45.4542" lon="5.819">
        <ele>894</ele>
        <time>2011-08-10T08:05:14Z</time>
      </trkpt>
      <trkpt lat="45.45412" lon="5.81895">
        <ele>906</ele>
        <time>2011-08-10T08:05:24Z</time>
      </trkpt>
      <trkpt lat="45.45406" lon="5.81889">
        <ele>905</ele>
        <time>2011-08-10T08:05:38Z</time>
      </trkpt>
      <trkpt lat="45.45403" lon="5.81884">
        <ele>905</ele>
        <time>2011-08-10T08:05:49Z</time>
      </trkpt>
      <trkpt lat="45.45386" lon="5.81879">
        <ele>905</ele>
        <time>2011-08-10T08:05:59Z</time>
      </trkpt>
      <trkpt lat="45.45366" lon="5.81866">
        <ele>906</ele>
        <time>2011-08-10T08:06:15Z</time>
      </trkpt>
      <trkpt lat="45.45347" lon="5.81852">
        <ele>907</ele>
        <time>2011-08-10T08:06:26Z</time>
      </trkpt>
      <trkpt lat="45.45324" lon="5.81832">
        <ele>909</ele>
        <time>2011-08-10T08:06:43Z</time>
      </trkpt>
      <trkpt lat="45.45316" lon="5.81826">
        <ele>909</ele>
        <time>2011-08-10T08:06:57Z</time>
      </trkpt>
      <trkpt lat="45.45315" lon="5.81825">
        <ele>909</ele>
        <time>2011-08-10T08:06:59Z</time>
      </trkpt>
      <trkpt lat="45.453" lon="5.81813">
        <ele>911</ele>
        <time>2011-08-10T08:07:12Z</time>
      </trkpt>
      <trkpt lat="45.45287" lon="5.81802">
        <ele>912</ele>
        <time>2011-08-10T08:07:26Z</time>
      </trkpt>
      <trkpt lat="45.45283" lon="5.81797">
        <ele>912</ele>
        <time>2011-08-10T08:07:36Z</time>
      </trkpt>
      <trkpt lat="45.45274" lon="5.81786">
        <ele>912</ele>
        <time>2011-08-10T08:07:50Z</time>
      </trkpt>
      <trkpt lat="45.45268" lon="5.81779">
        <ele>913</ele>
        <time>2011-08-10T08:08:08Z</time>
      </trkpt>
      <trkpt lat="45.45257" lon="5.8177">
        <ele>915</ele>
        <time>2011-08-10T08:08:22Z</time>
      </trkpt>
      <trkpt lat="45.45241" lon="5.81767">
        <ele>925</ele>
        <time>2011-08-10T08:08:34Z</time>
      </trkpt>
      <trkpt lat="45.45237" lon="5.81768">
        <ele>926</ele>
        <time>2011-08-10T08:08:49Z</time>
      </trkpt>
      <trkpt lat="45.45231" lon="5.81771">
        <ele>927</ele>
        <time>2011-08-10T08:09:06Z</time>
      </trkpt>
      <trkpt lat="45.45223" lon="5.81776">
        <ele>928</ele>
        <time>2011-08-10T08:09:21Z</time>
      </trkpt>
      <trkpt lat="45.45217" lon="5.81784">
        <ele>929</ele>
        <time>2011-08-10T08:09:35Z</time>
      </trkpt>
      <trkpt lat="45.45208" lon="5.81798">
        <ele>931</ele>
        <time>2011-08-10T08:09:49Z</time>
      </trkpt>
      <trkpt lat="45.45207" lon="5.81809">
        <ele>931</ele>
        <time>2011-08-10T08:09:59Z</time>
      </trkpt>
      <trkpt lat="45.45203" lon="5.81807">
        <ele>932</ele>
        <time>2011-08-10T08:10:11Z</time>
      </trkpt>
      <trkpt lat="45.45186" lon="5.81787">
        <ele>932</ele>
        <time>2011-08-10T08:10:27Z</time>
      </trkpt>
      <trkpt lat="45.45177" lon="5.81774">
        <ele>932</ele>
        <time>2011-08-10T08:10:37Z</time>
      </trkpt>
      <trkpt lat="45.45159" lon="5.81755">
        <ele>937</ele>
        <time>2011-08-10T08:10:48Z</time>
      </trkpt>
      <trkpt lat="45.45148" lon="5.81738">
        <ele>937</ele>
        <time>2011-08-10T08:10:55Z</time>
      </trkpt>
      <trkpt lat="45.45126" lon="5.81716">
        <ele>938</ele>
        <time>2011-08-10T08:11:11Z</time>
      </trkpt>
      <trkpt lat="45.45116" lon="5.8171">
        <ele>939</ele>
        <time>2011-08-10T08:11:17Z</time>
      </trkpt>
      <trkpt lat="45.45088" lon="5.81684">
        <ele>939</ele>
        <time>2011-08-10T08:11:34Z</time>
      </trkpt>
      <trkpt lat="45.45062" lon="5.81668">
        <ele>943</ele>
        <time>2011-08-10T08:11:49Z</time>
      </trkpt>
      <trkpt lat="45.45027" lon="5.81651">
        <ele>947</ele>
        <time>2011-08-10T08:12:08Z</time>
      </trkpt>
      <trkpt lat="45.44997" lon="5.81636">
        <ele>952</ele>
        <time>2011-08-10T08:12:25Z</time>
      </trkpt>
      <trkpt lat="45.44994" lon="5.81635">
        <ele>952</ele>
        <time>2011-08-10T08:12:27Z</time>
      </trkpt>
      <trkpt lat="45.44982" lon="5.81625">
        <ele>954</ele>
        <time>2011-08-10T08:12:34Z</time>
      </trkpt>
      <trkpt lat="45.44976" lon="5.81623">
        <ele>954</ele>
        <time>2011-08-10T08:12:37Z</time>
      </trkpt>
      <trkpt lat="45.44962" lon="5.81616">
        <ele>955</ele>
        <time>2011-08-10T08:12:46Z</time>
      </trkpt>
      <trkpt lat="45.44947" lon="5.8161">
        <ele>956</ele>
        <time>2011-08-10T08:12:54Z</time>
      </trkpt>
      <trkpt lat="45.4494" lon="5.81606">
        <ele>956</ele>
        <time>2011-08-10T08:12:58Z</time>
      </trkpt>
      <trkpt lat="45.44914" lon="5.81589">
        <ele>961</ele>
        <time>2011-08-10T08:13:16Z</time>
      </trkpt>
      <trkpt lat="45.44896" lon="5.81578">
        <ele>963</ele>
        <time>2011-08-10T08:13:26Z</time>
      </trkpt>
      <trkpt lat="45.44873" lon="5.81567">
        <ele>963</ele>
        <time>2011-08-10T08:13:39Z</time>
      </trkpt>
      <trkpt lat="45.44834" lon="5.81549">
        <ele>963</ele>
        <time>2011-08-10T08:13:56Z</time>
      </trkpt>
      <trkpt lat="45.44809" lon="5.81542">
        <ele>961</ele>
        <time>2011-08-10T08:14:08Z</time>
      </trkpt>
      <trkpt lat="45.44766" lon="5.81517">
        <ele>959</ele>
        <time>2011-08-10T08:14:27Z</time>
      </trkpt>
      <trkpt lat="45.44726" lon="5.81468">
        <ele>961</ele>
        <time>2011-08-10T08:14:45Z</time>
      </trkpt>
      <trkpt lat="45.4467" lon="5.81397">
        <ele>968</ele>
        <time>2011-08-10T08:15:08Z</time>
      </trkpt>
      <trkpt lat="45.4462" lon="5.81337">
        <ele>968</ele>
        <time>2011-08-10T08:15:28Z</time>
      </trkpt>
      <trkpt lat="45.44582" lon="5.81302">
        <ele>971</ele>
        <time>2011-08-10T08:15:42Z</time>
      </trkpt>
      <trkpt lat="45.44526" lon="5.81261">
        <ele>972</ele>
        <time>2011-08-10T08:16:01Z</time>
      </trkpt>
      <trkpt lat="45.4446" lon="5.81213">
        <ele>971</ele>
        <time>2011-08-10T08:16:24Z</time>
      </trkpt>
      <trkpt lat="45.4439" lon="5.81156">
        <ele>969</ele>
        <time>2011-08-10T08:16:50Z</time>
      </trkpt>
      <trkpt lat="45.44327" lon="5.81104">
        <ele>965</ele>
        <time>2011-08-10T08:17:09Z</time>
      </trkpt>
      <trkpt lat="45.44242" lon="5.81066">
        <ele>956</ele>
        <time>2011-08-10T08:17:25Z</time>
      </trkpt>
      <trkpt lat="45.44208" lon="5.81084">
        <ele>955</ele>
        <time>2011-08-10T08:17:32Z</time>
      </trkpt>
      <trkpt lat="45.44207" lon="5.811">
        <ele>955</ele>
        <time>2011-08-10T08:17:34Z</time>
      </trkpt>
      <trkpt lat="45.4419" lon="5.81147">
        <ele>955</ele>
        <time>2011-08-10T08:17:45Z</time>
      </trkpt>
      <trkpt lat="45.44154" lon="5.81173">
        <ele>955</ele>
        <time>2011-08-10T08:17:57Z</time>
      </trkpt>
      <trkpt lat="45.44081" lon="5.81194">
        <ele>954</ele>
        <time>2011-08-10T08:18:13Z</time>
      </trkpt>
      <trkpt lat="45.44017" lon="5.81186">
        <ele>953</ele>
        <time>2011-08-10T08:18:25Z</time>
      </trkpt>
      <trkpt lat="45.4395" lon="5.81211">
        <ele>955</ele>
        <time>2011-08-10T08:18:43Z</time>
      </trkpt>
      <trkpt lat="45.43922" lon="5.81237">
        <ele>958</ele>
        <time>2011-08-10T08:18:56Z</time>
      </trkpt>
      <trkpt lat="45.43906" lon="5.81254">
        <ele>964</ele>
        <time>2011-08-10T08:19:06Z</time>
      </trkpt>
      <trkpt lat="45.439" lon="5.81259">
        <ele>965</ele>
        <time>2011-08-10T08:19:09Z</time>
      </trkpt>
      <trkpt lat="45.43868" lon="5.8128">
        <ele>967</ele>
        <time>2011-08-10T08:19:24Z</time>
      </trkpt>
      <trkpt lat="45.43837" lon="5.81287">
        <ele>967</ele>
        <time>2011-08-10T08:19:36Z</time>
      </trkpt>
      <trkpt lat="45.4381" lon="5.81288">
        <ele>969</ele>
        <time>2011-08-10T08:19:49Z</time>
      </trkpt>
      <trkpt lat="45.43797" lon="5.81284">
        <ele>969</ele>
        <time>2011-08-10T08:19:57Z</time>
      </trkpt>
      <trkpt lat="45.43782" lon="5.81281">
        <ele>969</ele>
        <time>2011-08-10T08:20:06Z</time>
      </trkpt>
      <trkpt lat="45.4376" lon="5.81297">
        <ele>972</ele>
        <time>2011-08-10T08:20:23Z</time>
      </trkpt>
      <trkpt lat="45.4375" lon="5.81314">
        <ele>969</ele>
        <time>2011-08-10T08:20:35Z</time>
      </trkpt>
      <trkpt lat="45.43734" lon="5.81333">
        <ele>970</ele>
        <time>2011-08-10T08:20:49Z</time>
      </trkpt>
      <trkpt lat="45.43732" lon="5.81335">
        <ele>977</ele>
        <time>2011-08-10T08:21:04Z</time>
      </trkpt>
      <trkpt lat="45.43732" lon="5.81336">
        <ele>977</ele>
        <time>2011-08-10T08:29:02Z</time>
      </trkpt>
      <trkpt lat="45.43733" lon="5.81359">
        <ele>977</ele>
        <time>2011-08-10T08:29:18Z</time>
      </trkpt>
      <trkpt lat="45.43733" lon="5.81361">
        <ele>977</ele>
        <time>2011-08-10T08:29:23Z</time>
      </trkpt>
      <trkpt lat="45.4373" lon="5.8139">
        <ele>981</ele>
        <time>2011-08-10T08:29:38Z</time>
      </trkpt>
      <trkpt lat="45.43727" lon="5.81396">
        <ele>982</ele>
        <time>2011-08-10T08:29:42Z</time>
      </trkpt>
      <trkpt lat="45.43722" lon="5.81405">
        <ele>982</ele>
        <time>2011-08-10T08:29:49Z</time>
      </trkpt>
      <trkpt lat="45.43721" lon="5.81426">
        <ele>998</ele>
        <time>2011-08-10T08:29:57Z</time>
      </trkpt>
      <trkpt lat="45.43711" lon="5.8144">
        <ele>998</ele>
        <time>2011-08-10T08:30:07Z</time>
      </trkpt>
      <trkpt lat="45.4371" lon="5.81444">
        <ele>998</ele>
        <time>2011-08-10T08:30:09Z</time>
      </trkpt>
      <trkpt lat="45.43697" lon="5.81452">
        <ele>997</ele>
        <time>2011-08-10T08:30:19Z</time>
      </trkpt>
      <trkpt lat="45.43689" lon="5.81455">
        <ele>997</ele>
        <time>2011-08-10T08:30:24Z</time>
      </trkpt>
      <trkpt lat="45.43685" lon="5.81458">
        <ele>997</ele>
        <time>2011-08-10T08:30:30Z</time>
      </trkpt>
      <trkpt lat="45.43682" lon="5.81465">
        <ele>998</ele>
        <time>2011-08-10T08:30:38Z</time>
      </trkpt>
      <trkpt lat="45.43681" lon="5.81474">
        <ele>1000</ele>
        <time>2011-08-10T08:30:52Z</time>
      </trkpt>
      <trkpt lat="45.43678" lon="5.81487">
        <ele>1002</ele>
        <time>2011-08-10T08:31:08Z</time>
      </trkpt>
      <trkpt lat="45.43677" lon="5.81501">
        <ele>1009</ele>
        <time>2011-08-10T08:31:19Z</time>
      </trkpt>
      <trkpt lat="45.43674" lon="5.81516">
        <ele>1010</ele>
        <time>2011-08-10T08:31:33Z</time>
      </trkpt>
      <trkpt lat="45.43671" lon="5.81521">
        <ele>1011</ele>
        <time>2011-08-10T08:31:46Z</time>
      </trkpt>
      <trkpt lat="45.43665" lon="5.81536">
        <ele>983</ele>
        <time>2011-08-10T08:31:55Z</time>
      </trkpt>
      <trkpt lat="45.43664" lon="5.81539">
        <ele>983</ele>
        <time>2011-08-10T08:31:56Z</time>
      </trkpt>
      <trkpt lat="45.43646" lon="5.81553">
        <ele>979</ele>
        <time>2011-08-10T08:32:05Z</time>
      </trkpt>
      <trkpt lat="45.43644" lon="5.8158">
        <ele>982</ele>
        <time>2011-08-10T08:32:13Z</time>
      </trkpt>
      <trkpt lat="45.43656" lon="5.81616">
        <ele>977</ele>
        <time>2011-08-10T08:32:23Z</time>
      </trkpt>
      <trkpt lat="45.43667" lon="5.81647">
        <ele>999</ele>
        <time>2011-08-10T08:32:30Z</time>
      </trkpt>
      <trkpt lat="45.43672" lon="5.81656">
        <ele>995</ele>
        <time>2011-08-10T08:32:32Z</time>
      </trkpt>
      <trkpt lat="45.43675" lon="5.81682">
        <ele>993</ele>
        <time>2011-08-10T08:32:39Z</time>
      </trkpt>
      <trkpt lat="45.43686" lon="5.81721">
        <ele>997</ele>
        <time>2011-08-10T08:32:48Z</time>
      </trkpt>
      <trkpt lat="45.43689" lon="5.81726">
        <ele>997</ele>
        <time>2011-08-10T08:32:50Z</time>
      </trkpt>
      <trkpt lat="45.43689" lon="5.81744">
        <ele>995</ele>
        <time>2011-08-10T08:33:04Z</time>
      </trkpt>
      <trkpt lat="45.43685" lon="5.81749">
        <ele>994</ele>
        <time>2011-08-10T08:33:07Z</time>
      </trkpt>
      <trkpt lat="45.43682" lon="5.81755">
        <ele>997</ele>
        <time>2011-08-10T08:33:15Z</time>
      </trkpt>
      <trkpt lat="45.43688" lon="5.81765">
        <ele>1003</ele>
        <time>2011-08-10T08:33:22Z</time>
      </trkpt>
      <trkpt lat="45.43679" lon="5.81771">
        <ele>1002</ele>
        <time>2011-08-10T08:33:34Z</time>
      </trkpt>
      <trkpt lat="45.43669" lon="5.8177">
        <ele>1000</ele>
        <time>2011-08-10T08:33:46Z</time>
      </trkpt>
      <trkpt lat="45.43659" lon="5.81769">
        <ele>986</ele>
        <time>2011-08-10T08:33:55Z</time>
      </trkpt>
      <trkpt lat="45.4366" lon="5.81768">
        <ele>986</ele>
        <time>2011-08-10T08:34:15Z</time>
      </trkpt>
      <trkpt lat="45.43655" lon="5.81768">
        <ele>986</ele>
        <time>2011-08-10T08:34:19Z</time>
      </trkpt>
      <trkpt lat="45.43641" lon="5.81771">
        <ele>986</ele>
        <time>2011-08-10T08:34:26Z</time>
      </trkpt>
      <trkpt lat="45.43613" lon="5.81755">
        <ele>979</ele>
        <time>2011-08-10T08:34:36Z</time>
      </trkpt>
      <trkpt lat="45.43602" lon="5.81749">
        <ele>964</ele>
        <time>2011-08-10T08:34:39Z</time>
      </trkpt>
      <trkpt lat="45.43581" lon="5.81749">
        <ele>958</ele>
        <time>2011-08-10T08:34:47Z</time>
      </trkpt>
      <trkpt lat="45.4358" lon="5.8175">
        <ele>961</ele>
        <time>2011-08-10T08:34:49Z</time>
      </trkpt>
      <trkpt lat="45.43573" lon="5.81753">
        <ele>962</ele>
        <time>2011-08-10T08:34:53Z</time>
      </trkpt>
      <trkpt lat="45.43534" lon="5.81759">
        <ele>961</ele>
        <time>2011-08-10T08:35:05Z</time>
      </trkpt>
      <trkpt lat="45.43525" lon="5.81761">
        <ele>959</ele>
        <time>2011-08-10T08:35:10Z</time>
      </trkpt>
      <trkpt lat="45.43515" lon="5.81762">
        <ele>956</ele>
        <time>2011-08-10T08:35:15Z</time>
      </trkpt>
      <trkpt lat="45.43491" lon="5.81761">
        <ele>950</ele>
        <time>2011-08-10T08:35:25Z</time>
      </trkpt>
      <trkpt lat="45.43477" lon="5.81761">
        <ele>953</ele>
        <time>2011-08-10T08:35:28Z</time>
      </trkpt>
      <trkpt lat="45.43467" lon="5.8176">
        <ele>954</ele>
        <time>2011-08-10T08:35:30Z</time>
      </trkpt>
      <trkpt lat="45.43406" lon="5.81732">
        <ele>932</ele>
        <time>2011-08-10T08:35:38Z</time>
      </trkpt>
      <trkpt lat="45.43386" lon="5.81727">
        <ele>928</ele>
        <time>2011-08-10T08:35:43Z</time>
      </trkpt>
      <trkpt lat="45.43346" lon="5.81725">
        <ele>928</ele>
        <time>2011-08-10T08:35:54Z</time>
      </trkpt>
      <trkpt lat="45.43335" lon="5.81729">
        <ele>929</ele>
        <time>2011-08-10T08:35:57Z</time>
      </trkpt>
      <trkpt lat="45.43329" lon="5.8174">
        <ele>929</ele>
        <time>2011-08-10T08:36:01Z</time>
      </trkpt>
      <trkpt lat="45.43326" lon="5.81743">
        <ele>929</ele>
        <time>2011-08-10T08:36:03Z</time>
      </trkpt>
      <trkpt lat="45.43322" lon="5.81755">
        <ele>939</ele>
        <time>2011-08-10T08:36:07Z</time>
      </trkpt>
      <trkpt lat="45.433" lon="5.8179">
        <ele>942</ele>
        <time>2011-08-10T08:36:19Z</time>
      </trkpt>
      <trkpt lat="45.43281" lon="5.81793">
        <ele>939</ele>
        <time>2011-08-10T08:36:23Z</time>
      </trkpt>
      <trkpt lat="45.43254" lon="5.81791">
        <ele>936</ele>
        <time>2011-08-10T08:36:31Z</time>
      </trkpt>
      <trkpt lat="45.43245" lon="5.81789">
        <ele>917</ele>
        <time>2011-08-10T08:36:33Z</time>
      </trkpt>
      <trkpt lat="45.43224" lon="5.8179">
        <ele>914</ele>
        <time>2011-08-10T08:36:39Z</time>
      </trkpt>
      <trkpt lat="45.43217" lon="5.818">
        <ele>914</ele>
        <time>2011-08-10T08:36:43Z</time>
      </trkpt>
      <trkpt lat="45.43215" lon="5.81801">
        <ele>914</ele>
        <time>2011-08-10T08:36:48Z</time>
      </trkpt>
      <trkpt lat="45.43215" lon="5.81806">
        <ele>915</ele>
        <time>2011-08-10T08:36:54Z</time>
      </trkpt>
      <trkpt lat="45.43204" lon="5.81825">
        <ele>913</ele>
        <time>2011-08-10T08:36:59Z</time>
      </trkpt>
      <trkpt lat="45.43172" lon="5.81868">
        <ele>928</ele>
        <time>2011-08-10T08:37:07Z</time>
      </trkpt>
      <trkpt lat="45.43137" lon="5.81885">
        <ele>903</ele>
        <time>2011-08-10T08:37:16Z</time>
      </trkpt>
      <trkpt lat="45.43128" lon="5.81903">
        <ele>904</ele>
        <time>2011-08-10T08:37:27Z</time>
      </trkpt>
      <trkpt lat="45.43119" lon="5.81919">
        <ele>918</ele>
        <time>2011-08-10T08:37:34Z</time>
      </trkpt>
      <trkpt lat="45.43115" lon="5.81926">
        <ele>917</ele>
        <time>2011-08-10T08:37:38Z</time>
      </trkpt>
      <trkpt lat="45.4309" lon="5.81942">
        <ele>913</ele>
        <time>2011-08-10T08:37:46Z</time>
      </trkpt>
      <trkpt lat="45.43071" lon="5.81965">
        <ele>893</ele>
        <time>2011-08-10T08:37:50Z</time>
      </trkpt>
      <trkpt lat="45.43061" lon="5.81981">
        <ele>895</ele>
        <time>2011-08-10T08:37:54Z</time>
      </trkpt>
      <trkpt lat="45.43052" lon="5.81994">
        <ele>894</ele>
        <time>2011-08-10T08:37:58Z</time>
      </trkpt>
      <trkpt lat="45.43038" lon="5.82016">
        <ele>907</ele>
        <time>2011-08-10T08:38:05Z</time>
      </trkpt>
      <trkpt lat="45.43018" lon="5.82035">
        <ele>905</ele>
        <time>2011-08-10T08:38:12Z</time>
      </trkpt>
      <trkpt lat="45.43016" lon="5.82036">
        <ele>906</ele>
        <time>2011-08-10T08:38:13Z</time>
      </trkpt>
      <trkpt lat="45.42999" lon="5.82055">
        <ele>883</ele>
        <time>2011-08-10T08:38:21Z</time>
      </trkpt>
      <trkpt lat="45.42993" lon="5.82057">
        <ele>883</ele>
        <time>2011-08-10T08:38:38Z</time>
      </trkpt>
      <trkpt lat="45.42975" lon="5.82062">
        <ele>878</ele>
        <time>2011-08-10T08:38:48Z</time>
      </trkpt>
      <trkpt lat="45.42955" lon="5.82072">
        <ele>871</ele>
        <time>2011-08-10T08:38:58Z</time>
      </trkpt>
      <trkpt lat="45.4295" lon="5.82079">
        <ele>869</ele>
        <time>2011-08-10T08:39:00Z</time>
      </trkpt>
      <trkpt lat="45.42924" lon="5.82128">
        <ele>881</ele>
        <time>2011-08-10T08:39:07Z</time>
      </trkpt>
      <trkpt lat="45.4292" lon="5.82168">
        <ele>876</ele>
        <time>2011-08-10T08:39:17Z</time>
      </trkpt>
      <trkpt lat="45.42922" lon="5.82173">
        <ele>879</ele>
        <time>2011-08-10T08:39:20Z</time>
      </trkpt>
      <trkpt lat="45.42925" lon="5.82189">
        <ele>885</ele>
        <time>2011-08-10T08:39:32Z</time>
      </trkpt>
      <trkpt lat="45.42931" lon="5.82213">
        <ele>887</ele>
        <time>2011-08-10T08:39:41Z</time>
      </trkpt>
      <trkpt lat="45.42931" lon="5.82222">
        <ele>886</ele>
        <time>2011-08-10T08:39:44Z</time>
      </trkpt>
      <trkpt lat="45.42925" lon="5.82275">
        <ele>878</ele>
        <time>2011-08-10T08:39:51Z</time>
      </trkpt>
      <trkpt lat="45.42925" lon="5.82331">
        <ele>865</ele>
        <time>2011-08-10T08:39:59Z</time>
      </trkpt>
      <trkpt lat="45.4293" lon="5.82379">
        <ele>865</ele>
        <time>2011-08-10T08:40:08Z</time>
      </trkpt>
      <trkpt lat="45.4293" lon="5.82385">
        <ele>864</ele>
        <time>2011-08-10T08:40:17Z</time>
      </trkpt>
      <trkpt lat="45.4293" lon="5.82387">
        <ele>864</ele>
        <time>2011-08-10T08:40:53Z</time>
      </trkpt>
      <trkpt lat="45.42931" lon="5.82384">
        <ele>864</ele>
        <time>2011-08-10T08:41:20Z</time>
      </trkpt>
      <trkpt lat="45.4293" lon="5.82384">
        <ele>864</ele>
        <time>2011-08-10T08:46:58Z</time>
      </trkpt>
      <trkpt lat="45.42929" lon="5.82386">
        <ele>864</ele>
        <time>2011-08-10T08:47:27Z</time>
      </trkpt>
      <trkpt lat="45.4293" lon="5.82388">
        <ele>863</ele>
        <time>2011-08-10T08:47:34Z</time>
      </trkpt>
      <trkpt lat="45.42937" lon="5.82413">
        <ele>861</ele>
        <time>2011-08-10T08:47:49Z</time>
      </trkpt>
      <trkpt lat="45.42934" lon="5.82417">
        <ele>851</ele>
        <time>2011-08-10T08:47:54Z</time>
      </trkpt>
      <trkpt lat="45.42931" lon="5.82413">
        <ele>857</ele>
        <time>2011-08-10T08:47:58Z</time>
      </trkpt>
      <trkpt lat="45.42923" lon="5.82396">
        <ele>860</ele>
        <time>2011-08-10T08:48:08Z</time>
      </trkpt>
      <trkpt lat="45.42923" lon="5.82403">
        <ele>857</ele>
        <time>2011-08-10T08:48:28Z</time>
      </trkpt>
      <trkpt lat="45.42923" lon="5.82433">
        <ele>849</ele>
        <time>2011-08-10T08:48:42Z</time>
      </trkpt>
      <trkpt lat="45.42916" lon="5.82439">
        <ele>835</ele>
        <time>2011-08-10T08:48:57Z</time>
      </trkpt>
      <trkpt lat="45.42914" lon="5.82441">
        <ele>834</ele>
        <time>2011-08-10T08:49:09Z</time>
      </trkpt>
      <trkpt lat="45.42914" lon="5.8245">
        <ele>832</ele>
        <time>2011-08-10T08:49:13Z</time>
      </trkpt>
      <trkpt lat="45.42946" lon="5.82493">
        <ele>846</ele>
        <time>2011-08-10T08:49:27Z</time>
      </trkpt>
      <trkpt lat="45.42974" lon="5.82521">
        <ele>837</ele>
        <time>2011-08-10T08:49:40Z</time>
      </trkpt>
      <trkpt lat="45.42986" lon="5.8253">
        <ele>837</ele>
        <time>2011-08-10T08:49:45Z</time>
      </trkpt>
      <trkpt lat="45.42992" lon="5.82529">
        <ele>838</ele>
        <time>2011-08-10T08:49:57Z</time>
      </trkpt>
      <trkpt lat="45.42992" lon="5.82531">
        <ele>838</ele>
        <time>2011-08-10T08:50:54Z</time>
      </trkpt>
      <trkpt lat="45.42994" lon="5.82531">
        <ele>838</ele>
        <time>2011-08-10T08:50:56Z</time>
      </trkpt>
      <trkpt lat="45.42996" lon="5.82529">
        <ele>839</ele>
        <time>2011-08-10T08:51:17Z</time>
      </trkpt>
      <trkpt lat="45.43001" lon="5.82528">
        <ele>854</ele>
        <time>2011-08-10T09:05:59Z</time>
      </trkpt>
      <trkpt lat="45.42996" lon="5.82528">
        <ele>839</ele>
        <time>2011-08-10T09:06:30Z</time>
      </trkpt>
      <trkpt lat="45.43025" lon="5.82528">
        <ele>857</ele>
        <time>2011-08-10T09:07:26Z</time>
      </trkpt>
      <trkpt lat="45.43012" lon="5.82534">
        <ele>854</ele>
        <time>2011-08-10T09:08:00Z</time>
      </trkpt>
      <trkpt lat="45.4301" lon="5.82535">
        <ele>854</ele>
        <time>2011-08-10T09:15:10Z</time>
      </trkpt>
      <trkpt lat="45.43017" lon="5.82552">
        <ele>852</ele>
        <time>2011-08-10T09:15:18Z</time>
      </trkpt>
      <trkpt lat="45.43041" lon="5.82569">
        <ele>854</ele>
        <time>2011-08-10T09:15:25Z</time>
      </trkpt>
      <trkpt lat="45.43069" lon="5.82621">
        <ele>838</ele>
        <time>2011-08-10T09:15:36Z</time>
      </trkpt>
      <trkpt lat="45.43092" lon="5.82674">
        <ele>833</ele>
        <time>2011-08-10T09:15:41Z</time>
      </trkpt>
      <trkpt lat="45.43125" lon="5.82713">
        <ele>834</ele>
        <time>2011-08-10T09:15:46Z</time>
      </trkpt>
      <trkpt lat="45.43139" lon="5.82743">
        <ele>833</ele>
        <time>2011-08-10T09:15:49Z</time>
      </trkpt>
      <trkpt lat="45.43148" lon="5.82758">
        <ele>826</ele>
        <time>2011-08-10T09:15:51Z</time>
      </trkpt>
      <trkpt lat="45.43171" lon="5.82785">
        <ele>837</ele>
        <time>2011-08-10T09:15:56Z</time>
      </trkpt>
      <trkpt lat="45.43188" lon="5.82796">
        <ele>837</ele>
        <time>2011-08-10T09:16:00Z</time>
      </trkpt>
      <trkpt lat="45.43195" lon="5.82799">
        <ele>838</ele>
        <time>2011-08-10T09:16:02Z</time>
      </trkpt>
      <trkpt lat="45.43209" lon="5.82815">
        <ele>839</ele>
        <time>2011-08-10T09:16:06Z</time>
      </trkpt>
      <trkpt lat="45.43221" lon="5.82827">
        <ele>840</ele>
        <time>2011-08-10T09:16:09Z</time>
      </trkpt>
      <trkpt lat="45.43253" lon="5.82852">
        <ele>841</ele>
        <time>2011-08-10T09:16:14Z</time>
      </trkpt>
      <trkpt lat="45.43285" lon="5.82888">
        <ele>837</ele>
        <time>2011-08-10T09:16:20Z</time>
      </trkpt>
      <trkpt lat="45.43315" lon="5.82909">
        <ele>839</ele>
        <time>2011-08-10T09:16:23Z</time>
      </trkpt>
      <trkpt lat="45.4336" lon="5.83006">
        <ele>819</ele>
        <time>2011-08-10T09:16:32Z</time>
      </trkpt>
      <trkpt lat="45.43369" lon="5.83017">
        <ele>821</ele>
        <time>2011-08-10T09:16:34Z</time>
      </trkpt>
      <trkpt lat="45.43379" lon="5.83045">
        <ele>820</ele>
        <time>2011-08-10T09:16:38Z</time>
      </trkpt>
      <trkpt lat="45.43373" lon="5.83074">
        <ele>818</ele>
        <time>2011-08-10T09:16:42Z</time>
      </trkpt>
      <trkpt lat="45.43372" lon="5.83098">
        <ele>815</ele>
        <time>2011-08-10T09:16:45Z</time>
      </trkpt>
      <trkpt lat="45.43375" lon="5.83123">
        <ele>816</ele>
        <time>2011-08-10T09:16:48Z</time>
      </trkpt>
      <trkpt lat="45.43373" lon="5.8317">
        <ele>823</ele>
        <time>2011-08-10T09:16:56Z</time>
      </trkpt>
      <trkpt lat="45.43361" lon="5.83181">
        <ele>823</ele>
        <time>2011-08-10T09:17:02Z</time>
      </trkpt>
      <trkpt lat="45.43349" lon="5.83185">
        <ele>822</ele>
        <time>2011-08-10T09:17:08Z</time>
      </trkpt>
      <trkpt lat="45.43331" lon="5.83191">
        <ele>820</ele>
        <time>2011-08-10T09:17:18Z</time>
      </trkpt>
      <trkpt lat="45.43323" lon="5.83194">
        <ele>821</ele>
        <time>2011-08-10T09:17:23Z</time>
      </trkpt>
      <trkpt lat="45.43301" lon="5.8319">
        <ele>820</ele>
        <time>2011-08-10T09:17:37Z</time>
      </trkpt>
      <trkpt lat="45.43285" lon="5.83196">
        <ele>820</ele>
        <time>2011-08-10T09:17:49Z</time>
      </trkpt>
      <trkpt lat="45.43278" lon="5.83199">
        <ele>821</ele>
        <time>2011-08-10T09:18:02Z</time>
      </trkpt>
      <trkpt lat="45.43275" lon="5.83203">
        <ele>821</ele>
        <time>2011-08-10T09:18:22Z</time>
      </trkpt>
      <trkpt lat="45.43267" lon="5.8321">
        <ele>821</ele>
        <time>2011-08-10T09:18:37Z</time>
      </trkpt>
      <trkpt lat="45.43263" lon="5.83218">
        <ele>822</ele>
        <time>2011-08-10T09:18:54Z</time>
      </trkpt>
      <trkpt lat="45.43264" lon="5.83223">
        <ele>823</ele>
        <time>2011-08-10T09:18:59Z</time>
      </trkpt>
      <trkpt lat="45.43269" lon="5.83241">
        <ele>825</ele>
        <time>2011-08-10T09:19:11Z</time>
      </trkpt>
      <trkpt lat="45.43276" lon="5.83258">
        <ele>834</ele>
        <time>2011-08-10T09:19:29Z</time>
      </trkpt>
      <trkpt lat="45.4328" lon="5.83269">
        <ele>835</ele>
        <time>2011-08-10T09:19:43Z</time>
      </trkpt>
      <trkpt lat="45.43287" lon="5.83287">
        <ele>837</ele>
        <time>2011-08-10T09:20:02Z</time>
      </trkpt>
      <trkpt lat="45.43291" lon="5.83301">
        <ele>838</ele>
        <time>2011-08-10T09:20:16Z</time>
      </trkpt>
      <trkpt lat="45.43296" lon="5.83314">
        <ele>839</ele>
        <time>2011-08-10T09:20:33Z</time>
      </trkpt>
      <trkpt lat="45.43299" lon="5.83323">
        <ele>840</ele>
        <time>2011-08-10T09:20:47Z</time>
      </trkpt>
      <trkpt lat="45.43302" lon="5.83336">
        <ele>847</ele>
        <time>2011-08-10T09:21:06Z</time>
      </trkpt>
      <trkpt lat="45.433" lon="5.83336">
        <ele>847</ele>
        <time>2011-08-10T09:21:12Z</time>
      </trkpt>
      <trkpt lat="45.43293" lon="5.83337">
        <ele>847</ele>
        <time>2011-08-10T09:21:20Z</time>
      </trkpt>
      <trkpt lat="45.43264" lon="5.83325">
        <ele>842</ele>
        <time>2011-08-10T09:21:29Z</time>
      </trkpt>
      <trkpt lat="45.43259" lon="5.83323">
        <ele>842</ele>
        <time>2011-08-10T09:21:30Z</time>
      </trkpt>
      <trkpt lat="45.43221" lon="5.83301">
        <ele>833</ele>
        <time>2011-08-10T09:21:39Z</time>
      </trkpt>
      <trkpt lat="45.43199" lon="5.83293">
        <ele>831</ele>
        <time>2011-08-10T09:21:43Z</time>
      </trkpt>
      <trkpt lat="45.43165" lon="5.83283">
        <ele>818</ele>
        <time>2011-08-10T09:21:49Z</time>
      </trkpt>
      <trkpt lat="45.43152" lon="5.83282">
        <ele>817</ele>
        <time>2011-08-10T09:21:51Z</time>
      </trkpt>
      <trkpt lat="45.43119" lon="5.8329">
        <ele>814</ele>
        <time>2011-08-10T09:21:56Z</time>
      </trkpt>
      <trkpt lat="45.43091" lon="5.83303">
        <ele>813</ele>
        <time>2011-08-10T09:22:03Z</time>
      </trkpt>
      <trkpt lat="45.43076" lon="5.83304">
        <ele>799</ele>
        <time>2011-08-10T09:22:08Z</time>
      </trkpt>
      <trkpt lat="45.43057" lon="5.83305">
        <ele>796</ele>
        <time>2011-08-10T09:22:14Z</time>
      </trkpt>
      <trkpt lat="45.4305" lon="5.83308">
        <ele>795</ele>
        <time>2011-08-10T09:22:25Z</time>
      </trkpt>
      <trkpt lat="45.4305" lon="5.83308">
        <ele>795</ele>
        <time>2011-08-10T09:22:28Z</time>
      </trkpt>
      <trkpt lat="45.43045" lon="5.83309">
        <ele>794</ele>
        <time>2011-08-10T09:22:31Z</time>
      </trkpt>
      <trkpt lat="45.43039" lon="5.83312">
        <ele>793</ele>
        <time>2011-08-10T09:22:33Z</time>
      </trkpt>
      <trkpt lat="45.43017" lon="5.83314">
        <ele>789</ele>
        <time>2011-08-10T09:22:40Z</time>
      </trkpt>
      <trkpt lat="45.42971" lon="5.83293">
        <ele>773</ele>
        <time>2011-08-10T09:22:51Z</time>
      </trkpt>
      <trkpt lat="45.42944" lon="5.83278">
        <ele>770</ele>
        <time>2011-08-10T09:22:57Z</time>
      </trkpt>
      <trkpt lat="45.42891" lon="5.83267">
        <ele>757</ele>
        <time>2011-08-10T09:23:10Z</time>
      </trkpt>
      <trkpt lat="45.4288" lon="5.83258">
        <ele>756</ele>
        <time>2011-08-10T09:23:13Z</time>
      </trkpt>
      <trkpt lat="45.42857" lon="5.83251">
        <ele>753</ele>
        <time>2011-08-10T09:23:18Z</time>
      </trkpt>
      <trkpt lat="45.42825" lon="5.83235">
        <ele>740</ele>
        <time>2011-08-10T09:23:25Z</time>
      </trkpt>
      <trkpt lat="45.42808" lon="5.8324">
        <ele>736</ele>
        <time>2011-08-10T09:23:30Z</time>
      </trkpt>
      <trkpt lat="45.42805" lon="5.83256">
        <ele>738</ele>
        <time>2011-08-10T09:23:36Z</time>
      </trkpt>
      <trkpt lat="45.42813" lon="5.83277">
        <ele>738</ele>
        <time>2011-08-10T09:23:43Z</time>
      </trkpt>
      <trkpt lat="45.42822" lon="5.83298">
        <ele>738</ele>
        <time>2011-08-10T09:23:47Z</time>
      </trkpt>
      <trkpt lat="45.4282" lon="5.83305">
        <ele>738</ele>
        <time>2011-08-10T09:23:51Z</time>
      </trkpt>
      <trkpt lat="45.42817" lon="5.83305">
        <ele>737</ele>
        <time>2011-08-10T09:23:53Z</time>
      </trkpt>
      <trkpt lat="45.42806" lon="5.83312">
        <ele>736</ele>
        <time>2011-08-10T09:23:57Z</time>
      </trkpt>
      <trkpt lat="45.42794" lon="5.83314">
        <ele>734</ele>
        <time>2011-08-10T09:24:01Z</time>
      </trkpt>
      <trkpt lat="45.42756" lon="5.83323">
        <ele>728</ele>
        <time>2011-08-10T09:24:12Z</time>
      </trkpt>
      <trkpt lat="45.42749" lon="5.83336">
        <ele>724</ele>
        <time>2011-08-10T09:24:18Z</time>
      </trkpt>
      <trkpt lat="45.42748" lon="5.83354">
        <ele>726</ele>
        <time>2011-08-10T09:24:27Z</time>
      </trkpt>
      <trkpt lat="45.42745" lon="5.83358">
        <ele>727</ele>
        <time>2011-08-10T09:24:29Z</time>
      </trkpt>
      <trkpt lat="45.42712" lon="5.83379">
        <ele>728</ele>
        <time>2011-08-10T09:24:43Z</time>
      </trkpt>
      <trkpt lat="45.42681" lon="5.83367">
        <ele>724</ele>
        <time>2011-08-10T09:24:52Z</time>
      </trkpt>
      <trkpt lat="45.42648" lon="5.83338">
        <ele>717</ele>
        <time>2011-08-10T09:24:59Z</time>
      </trkpt>
      <trkpt lat="45.4263" lon="5.83326">
        <ele>706</ele>
        <time>2011-08-10T09:25:02Z</time>
      </trkpt>
      <trkpt lat="45.42614" lon="5.83313">
        <ele>706</ele>
        <time>2011-08-10T09:25:06Z</time>
      </trkpt>
      <trkpt lat="45.42598" lon="5.83293">
        <ele>705</ele>
        <time>2011-08-10T09:25:10Z</time>
      </trkpt>
      <trkpt lat="45.42578" lon="5.83258">
        <ele>701</ele>
        <time>2011-08-10T09:25:21Z</time>
      </trkpt>
      <trkpt lat="45.42557" lon="5.83228">
        <ele>692</ele>
        <time>2011-08-10T09:25:32Z</time>
      </trkpt>
      <trkpt lat="45.42557" lon="5.83201">
        <ele>690</ele>
        <time>2011-08-10T09:25:37Z</time>
      </trkpt>
      <trkpt lat="45.42561" lon="5.8318">
        <ele>690</ele>
        <time>2011-08-10T09:25:40Z</time>
      </trkpt>
      <trkpt lat="45.42562" lon="5.83137">
        <ele>684</ele>
        <time>2011-08-10T09:25:46Z</time>
      </trkpt>
      <trkpt lat="45.42552" lon="5.83115">
        <ele>682</ele>
        <time>2011-08-10T09:25:52Z</time>
      </trkpt>
      <trkpt lat="45.42548" lon="5.83111">
        <ele>681</ele>
        <time>2011-08-10T09:25:55Z</time>
      </trkpt>
      <trkpt lat="45.42547" lon="5.83101">
        <ele>681</ele>
        <time>2011-08-10T09:25:58Z</time>
      </trkpt>
      <trkpt lat="45.42553" lon="5.83093">
        <ele>681</ele>
        <time>2011-08-10T09:26:01Z</time>
      </trkpt>
      <trkpt lat="45.42546" lon="5.83093">
        <ele>681</ele>
        <time>2011-08-10T09:26:08Z</time>
      </trkpt>
      <trkpt lat="45.42539" lon="5.83096">
        <ele>681</ele>
        <time>2011-08-10T09:26:10Z</time>
      </trkpt>
      <trkpt lat="45.42512" lon="5.83093">
        <ele>679</ele>
        <time>2011-08-10T09:26:15Z</time>
      </trkpt>
      <trkpt lat="45.42496" lon="5.83119">
        <ele>670</ele>
        <time>2011-08-10T09:26:21Z</time>
      </trkpt>
      <trkpt lat="45.42494" lon="5.83172">
        <ele>676</ele>
        <time>2011-08-10T09:26:27Z</time>
      </trkpt>
      <trkpt lat="45.42463" lon="5.83215">
        <ele>671</ele>
        <time>2011-08-10T09:26:33Z</time>
      </trkpt>
      <trkpt lat="45.42445" lon="5.83219">
        <ele>669</ele>
        <time>2011-08-10T09:26:35Z</time>
      </trkpt>
      <trkpt lat="45.42421" lon="5.83269">
        <ele>674</ele>
        <time>2011-08-10T09:26:41Z</time>
      </trkpt>
      <trkpt lat="45.4242" lon="5.83278">
        <ele>677</ele>
        <time>2011-08-10T09:26:42Z</time>
      </trkpt>
      <trkpt lat="45.42407" lon="5.83317">
        <ele>671</ele>
        <time>2011-08-10T09:26:46Z</time>
      </trkpt>
      <trkpt lat="45.42364" lon="5.83364">
        <ele>678</ele>
        <time>2011-08-10T09:26:53Z</time>
      </trkpt>
      <trkpt lat="45.42344" lon="5.83374">
        <ele>676</ele>
        <time>2011-08-10T09:26:56Z</time>
      </trkpt>
      <trkpt lat="45.42301" lon="5.83423">
        <ele>668</ele>
        <time>2011-08-10T09:27:03Z</time>
      </trkpt>
      <trkpt lat="45.42292" lon="5.83438">
        <ele>667</ele>
        <time>2011-08-10T09:27:05Z</time>
      </trkpt>
      <trkpt lat="45.4224" lon="5.83507">
        <ele>662</ele>
        <time>2011-08-10T09:27:12Z</time>
      </trkpt>
      <trkpt lat="45.42182" lon="5.83581">
        <ele>659</ele>
        <time>2011-08-10T09:27:20Z</time>
      </trkpt>
      <trkpt lat="45.42168" lon="5.83593">
        <ele>666</ele>
        <time>2011-08-10T09:27:22Z</time>
      </trkpt>
      <trkpt lat="45.42142" lon="5.83607">
        <ele>652</ele>
        <time>2011-08-10T09:27:26Z</time>
      </trkpt>
      <trkpt lat="45.42128" lon="5.83629">
        <ele>653</ele>
        <time>2011-08-10T09:27:30Z</time>
      </trkpt>
      <trkpt lat="45.42124" lon="5.83641">
        <ele>654</ele>
        <time>2011-08-10T09:27:32Z</time>
      </trkpt>
      <trkpt lat="45.42119" lon="5.83652">
        <ele>654</ele>
        <time>2011-08-10T09:27:34Z</time>
      </trkpt>
      <trkpt lat="45.42114" lon="5.83678">
        <ele>670</ele>
        <time>2011-08-10T09:27:39Z</time>
      </trkpt>
      <trkpt lat="45.4209" lon="5.83703">
        <ele>669</ele>
        <time>2011-08-10T09:27:46Z</time>
      </trkpt>
      <trkpt lat="45.42035" lon="5.83774">
        <ele>651</ele>
        <time>2011-08-10T09:27:53Z</time>
      </trkpt>
      <trkpt lat="45.42017" lon="5.83794">
        <ele>648</ele>
        <time>2011-08-10T09:27:55Z</time>
      </trkpt>
      <trkpt lat="45.41979" lon="5.83826">
        <ele>626</ele>
        <time>2011-08-10T09:28:01Z</time>
      </trkpt>
      <trkpt lat="45.41963" lon="5.83854">
        <ele>631</ele>
        <time>2011-08-10T09:28:06Z</time>
      </trkpt>
      <trkpt lat="45.41929" lon="5.83869">
        <ele>628</ele>
        <time>2011-08-10T09:28:18Z</time>
      </trkpt>
      <trkpt lat="45.41926" lon="5.83866">
        <ele>627</ele>
        <time>2011-08-10T09:28:37Z</time>
      </trkpt>
      <trkpt lat="45.41911" lon="5.83869">
        <ele>641</ele>
        <time>2011-08-10T09:28:55Z</time>
      </trkpt>
      <trkpt lat="45.41899" lon="5.83886">
        <ele>646</ele>
        <time>2011-08-10T09:29:03Z</time>
      </trkpt>
      <trkpt lat="45.41899" lon="5.83878">
        <ele>645</ele>
        <time>2011-08-10T09:29:08Z</time>
      </trkpt>
      <trkpt lat="45.41906" lon="5.83864">
        <ele>641</ele>
        <time>2011-08-10T09:29:18Z</time>
      </trkpt>
      <trkpt lat="45.41931" lon="5.83819">
        <ele>617</ele>
        <time>2011-08-10T09:29:25Z</time>
      </trkpt>
      <trkpt lat="45.41961" lon="5.83729">
        <ele>612</ele>
        <time>2011-08-10T09:29:34Z</time>
      </trkpt>
      <trkpt lat="45.41962" lon="5.83685">
        <ele>612</ele>
        <time>2011-08-10T09:29:44Z</time>
      </trkpt>
      <trkpt lat="45.41963" lon="5.83676">
        <ele>611</ele>
        <time>2011-08-10T09:29:52Z</time>
      </trkpt>
      <trkpt lat="45.41961" lon="5.83698">
        <ele>612</ele>
        <time>2011-08-10T09:30:11Z</time>
      </trkpt>
      <trkpt lat="45.41961" lon="5.8373">
        <ele>612</ele>
        <time>2011-08-10T09:30:29Z</time>
      </trkpt>
      <trkpt lat="45.41955" lon="5.83735">
        <ele>611</ele>
        <time>2011-08-10T09:30:45Z</time>
      </trkpt>
      <trkpt lat="45.41953" lon="5.83729">
        <ele>611</ele>
        <time>2011-08-10T09:31:00Z</time>
      </trkpt>
      <trkpt lat="45.41947" lon="5.83722">
        <ele>611</ele>
        <time>2011-08-10T09:31:14Z</time>
      </trkpt>
      <trkpt lat="45.41939" lon="5.83715">
        <ele>611</ele>
        <time>2011-08-10T09:31:29Z</time>
      </trkpt>
      <trkpt lat="45.41939" lon="5.83714">
        <ele>611</ele>
        <time>2011-08-10T09:31:31Z</time>
      </trkpt>
      <trkpt lat="45.41937" lon="5.83712">
        <ele>611</ele>
        <time>2011-08-10T09:31:36Z</time>
      </trkpt>
      <trkpt lat="45.41937" lon="5.83712">
        <ele>611</ele>
        <time>2011-08-10T09:31:53Z</time>
      </trkpt>
      <trkpt lat="45.41937" lon="5.83712">
        <ele>611</ele>
        <time>2011-08-10T09:31:55Z</time>
      </trkpt>
      <trkpt lat="45.41938" lon="5.83693">
        <ele>613</ele>
        <time>2011-08-10T09:32:05Z</time>
      </trkpt>
      <trkpt lat="45.41945" lon="5.83672">
        <ele>613</ele>
        <time>2011-08-10T09:32:18Z</time>
      </trkpt>
      <trkpt lat="45.41946" lon="5.83667">
        <ele>613</ele>
        <time>2011-08-10T09:32:21Z</time>
      </trkpt>
      <trkpt lat="45.41947" lon="5.8366">
        <ele>618</ele>
        <time>2011-08-10T09:32:33Z</time>
      </trkpt>
      <trkpt lat="45.41948" lon="5.83652">
        <ele>618</ele>
        <time>2011-08-10T09:32:46Z</time>
      </trkpt>
      <trkpt lat="45.41951" lon="5.83636">
        <ele>619</ele>
        <time>2011-08-10T09:32:58Z</time>
      </trkpt>
      <trkpt lat="45.41953" lon="5.83623">
        <ele>620</ele>
        <time>2011-08-10T09:33:09Z</time>
      </trkpt>
      <trkpt lat="45.41958" lon="5.83615">
        <ele>619</ele>
        <time>2011-08-10T09:33:16Z</time>
      </trkpt>
      <trkpt lat="45.41975" lon="5.8361">
        <ele>616</ele>
        <time>2011-08-10T09:33:37Z</time>
      </trkpt>
      <trkpt lat="45.4198" lon="5.83605">
        <ele>615</ele>
        <time>2011-08-10T09:33:44Z</time>
      </trkpt>
      <trkpt lat="45.41983" lon="5.83594">
        <ele>614</ele>
        <time>2011-08-10T09:33:51Z</time>
      </trkpt>
      <trkpt lat="45.41979" lon="5.83573">
        <ele>622</ele>
        <time>2011-08-10T09:34:06Z</time>
      </trkpt>
      <trkpt lat="45.41979" lon="5.83569">
        <ele>623</ele>
        <time>2011-08-10T09:34:09Z</time>
      </trkpt>
      <trkpt lat="45.41971" lon="5.83555">
        <ele>627</ele>
        <time>2011-08-10T09:34:23Z</time>
      </trkpt>
      <trkpt lat="45.4197" lon="5.8354">
        <ele>629</ele>
        <time>2011-08-10T09:34:42Z</time>
      </trkpt>
      <trkpt lat="45.41969" lon="5.83538">
        <ele>629</ele>
        <time>2011-08-10T09:35:18Z</time>
      </trkpt>
      <trkpt lat="45.41968" lon="5.83512">
        <ele>631</ele>
        <time>2011-08-10T09:35:39Z</time>
      </trkpt>
      <trkpt lat="45.4197" lon="5.83498">
        <ele>638</ele>
        <time>2011-08-10T09:35:51Z</time>
      </trkpt>
      <trkpt lat="45.41986" lon="5.83491">
        <ele>630</ele>
        <time>2011-08-10T09:36:00Z</time>
      </trkpt>
      <trkpt lat="45.41992" lon="5.83488">
        <ele>629</ele>
        <time>2011-08-10T09:36:04Z</time>
      </trkpt>
      <trkpt lat="45.42001" lon="5.83481">
        <ele>617</ele>
        <time>2011-08-10T09:36:10Z</time>
      </trkpt>
      <trkpt lat="45.42006" lon="5.83477">
        <ele>616</ele>
        <time>2011-08-10T09:36:14Z</time>
      </trkpt>
      <trkpt lat="45.42004" lon="5.83472">
        <ele>617</ele>
        <time>2011-08-10T09:36:17Z</time>
      </trkpt>
      <trkpt lat="45.42005" lon="5.83467">
        <ele>617</ele>
        <time>2011-08-10T09:36:20Z</time>
      </trkpt>
      <trkpt lat="45.42002" lon="5.83461">
        <ele>617</ele>
        <time>2011-08-10T09:36:23Z</time>
      </trkpt>
      <trkpt lat="45.42004" lon="5.83456">
        <ele>618</ele>
        <time>2011-08-10T09:36:28Z</time>
      </trkpt>
      <trkpt lat="45.42002" lon="5.83444">
        <ele>619</ele>
        <time>2011-08-10T09:36:38Z</time>
      </trkpt>
      <trkpt lat="45.41998" lon="5.83438">
        <ele>636</ele>
        <time>2011-08-10T09:36:44Z</time>
      </trkpt>
      <trkpt lat="45.41998" lon="5.83427">
        <ele>634</ele>
        <time>2011-08-10T09:36:50Z</time>
      </trkpt>
      <trkpt lat="45.41995" lon="5.83418">
        <ele>631</ele>
        <time>2011-08-10T09:36:55Z</time>
      </trkpt>
      <trkpt lat="45.41998" lon="5.83414">
        <ele>631</ele>
        <time>2011-08-10T09:36:57Z</time>
      </trkpt>
      <trkpt lat="45.41994" lon="5.83404">
        <ele>640</ele>
        <time>2011-08-10T09:37:01Z</time>
      </trkpt>
      <trkpt lat="45.41986" lon="5.83391">
        <ele>647</ele>
        <time>2011-08-10T09:37:07Z</time>
      </trkpt>
      <trkpt lat="45.4198" lon="5.83368">
        <ele>651</ele>
        <time>2011-08-10T09:37:16Z</time>
      </trkpt>
      <trkpt lat="45.41982" lon="5.83361">
        <ele>650</ele>
        <time>2011-08-10T09:37:20Z</time>
      </trkpt>
      <trkpt lat="45.41982" lon="5.83341">
        <ele>647</ele>
        <time>2011-08-10T09:37:29Z</time>
      </trkpt>
      <trkpt lat="45.41982" lon="5.8332">
        <ele>653</ele>
        <time>2011-08-10T09:37:43Z</time>
      </trkpt>
      <trkpt lat="45.41982" lon="5.83316">
        <ele>654</ele>
        <time>2011-08-10T09:37:48Z</time>
      </trkpt>
      <trkpt lat="45.41987" lon="5.83312">
        <ele>653</ele>
        <time>2011-08-10T09:37:52Z</time>
      </trkpt>
      <trkpt lat="45.41989" lon="5.83305">
        <ele>655</ele>
        <time>2011-08-10T09:38:00Z</time>
      </trkpt>
      <trkpt lat="45.41991" lon="5.83289">
        <ele>656</ele>
        <time>2011-08-10T09:38:14Z</time>
      </trkpt>
      <trkpt lat="45.41988" lon="5.83261">
        <ele>652</ele>
        <time>2011-08-10T09:38:27Z</time>
      </trkpt>
      <trkpt lat="45.41991" lon="5.83224">
        <ele>663</ele>
        <time>2011-08-10T09:38:44Z</time>
      </trkpt>
      <trkpt lat="45.41999" lon="5.83215">
        <ele>664</ele>
        <time>2011-08-10T09:38:54Z</time>
      </trkpt>
      <trkpt lat="45.42003" lon="5.83198">
        <ele>634</ele>
        <time>2011-08-10T09:39:03Z</time>
      </trkpt>
      <trkpt lat="45.42002" lon="5.83189">
        <ele>637</ele>
        <time>2011-08-10T09:39:08Z</time>
      </trkpt>
      <trkpt lat="45.42002" lon="5.83183">
        <ele>640</ele>
        <time>2011-08-10T09:39:16Z</time>
      </trkpt>
      <trkpt lat="45.42004" lon="5.83168">
        <ele>648</ele>
        <time>2011-08-10T09:39:26Z</time>
      </trkpt>
      <trkpt lat="45.42" lon="5.83153">
        <ele>649</ele>
        <time>2011-08-10T09:39:39Z</time>
      </trkpt>
      <trkpt lat="45.42" lon="5.83153">
        <ele>668</ele>
        <time>2011-08-10T09:39:42Z</time>
      </trkpt>
      <trkpt lat="45.42003" lon="5.83142">
        <ele>648</ele>
        <time>2011-08-10T09:39:55Z</time>
      </trkpt>
      <trkpt lat="45.42003" lon="5.83139">
        <ele>648</ele>
        <time>2011-08-10T09:39:59Z</time>
      </trkpt>
      <trkpt lat="45.42" lon="5.8313">
        <ele>649</ele>
        <time>2011-08-10T09:40:13Z</time>
      </trkpt>
      <trkpt lat="45.42001" lon="5.8313">
        <ele>649</ele>
        <time>2011-08-10T09:40:15Z</time>
      </trkpt>
      <trkpt lat="45.42006" lon="5.83121">
        <ele>650</ele>
        <time>2011-08-10T09:40:29Z</time>
      </trkpt>
      <trkpt lat="45.42013" lon="5.83115">
        <ele>650</ele>
        <time>2011-08-10T09:40:37Z</time>
      </trkpt>
      <trkpt lat="45.42022" lon="5.83107">
        <ele>650</ele>
        <time>2011-08-10T09:40:54Z</time>
      </trkpt>
      <trkpt lat="45.42031" lon="5.831">
        <ele>648</ele>
        <time>2011-08-10T09:40:59Z</time>
      </trkpt>
      <trkpt lat="45.42039" lon="5.83095">
        <ele>646</ele>
        <time>2011-08-10T09:41:02Z</time>
      </trkpt>
      <trkpt lat="45.4205" lon="5.8308">
        <ele>651</ele>
        <time>2011-08-10T09:41:08Z</time>
      </trkpt>
      <trkpt lat="45.42049" lon="5.83063">
        <ele>652</ele>
        <time>2011-08-10T09:41:16Z</time>
      </trkpt>
      <trkpt lat="45.42041" lon="5.83037">
        <ele>655</ele>
        <time>2011-08-10T09:41:26Z</time>
      </trkpt>
      <trkpt lat="45.4204" lon="5.83025">
        <ele>656</ele>
        <time>2011-08-10T09:41:31Z</time>
      </trkpt>
      <trkpt lat="45.42035" lon="5.83005">
        <ele>658</ele>
        <time>2011-08-10T09:41:44Z</time>
      </trkpt>
      <trkpt lat="45.4203" lon="5.82965">
        <ele>664</ele>
        <time>2011-08-10T09:41:58Z</time>
      </trkpt>
      <trkpt lat="45.42039" lon="5.82954">
        <ele>663</ele>
        <time>2011-08-10T09:42:06Z</time>
      </trkpt>
      <trkpt lat="45.42042" lon="5.82952">
        <ele>662</ele>
        <time>2011-08-10T09:42:08Z</time>
      </trkpt>
      <trkpt lat="45.42045" lon="5.82949">
        <ele>661</ele>
        <time>2011-08-10T09:42:11Z</time>
      </trkpt>
      <trkpt lat="45.42046" lon="5.82946">
        <ele>661</ele>
        <time>2011-08-10T09:42:14Z</time>
      </trkpt>
      <trkpt lat="45.42056" lon="5.82933">
        <ele>659</ele>
        <time>2011-08-10T09:42:20Z</time>
      </trkpt>
      <trkpt lat="45.42064" lon="5.82918">
        <ele>656</ele>
        <time>2011-08-10T09:42:25Z</time>
      </trkpt>
      <trkpt lat="45.42068" lon="5.82894">
        <ele>660</ele>
        <time>2011-08-10T09:42:35Z</time>
      </trkpt>
      <trkpt lat="45.42068" lon="5.82886">
        <ele>661</ele>
        <time>2011-08-10T09:42:38Z</time>
      </trkpt>
      <trkpt lat="45.42068" lon="5.82879">
        <ele>662</ele>
        <time>2011-08-10T09:42:40Z</time>
      </trkpt>
      <trkpt lat="45.42067" lon="5.82842">
        <ele>659</ele>
        <time>2011-08-10T09:42:53Z</time>
      </trkpt>
      <trkpt lat="45.42066" lon="5.82834">
        <ele>659</ele>
        <time>2011-08-10T09:42:56Z</time>
      </trkpt>
      <trkpt lat="45.42063" lon="5.8282">
        <ele>661</ele>
        <time>2011-08-10T09:43:02Z</time>
      </trkpt>
      <trkpt lat="45.42054" lon="5.82781">
        <ele>664</ele>
        <time>2011-08-10T09:43:14Z</time>
      </trkpt>
      <trkpt lat="45.42044" lon="5.82744">
        <ele>662</ele>
        <time>2011-08-10T09:43:25Z</time>
      </trkpt>
      <trkpt lat="45.42042" lon="5.82705">
        <ele>662</ele>
        <time>2011-08-10T09:43:36Z</time>
      </trkpt>
      <trkpt lat="45.42022" lon="5.8267">
        <ele>667</ele>
        <time>2011-08-10T09:43:47Z</time>
      </trkpt>
      <trkpt lat="45.42023" lon="5.82646">
        <ele>666</ele>
        <time>2011-08-10T09:43:59Z</time>
      </trkpt>
      <trkpt lat="45.42022" lon="5.82606">
        <ele>667</ele>
        <time>2011-08-10T09:44:15Z</time>
      </trkpt>
      <trkpt lat="45.42042" lon="5.82565">
        <ele>667</ele>
        <time>2011-08-10T09:44:30Z</time>
      </trkpt>
      <trkpt lat="45.42065" lon="5.82555">
        <ele>664</ele>
        <time>2011-08-10T09:44:37Z</time>
      </trkpt>
      <trkpt lat="45.4208" lon="5.8251">
        <ele>661</ele>
        <time>2011-08-10T09:44:46Z</time>
      </trkpt>
      <trkpt lat="45.42077" lon="5.82504">
        <ele>661</ele>
        <time>2011-08-10T09:44:47Z</time>
      </trkpt>
      <trkpt lat="45.42002" lon="5.82371">
        <ele>651</ele>
        <time>2011-08-10T09:45:06Z</time>
      </trkpt>
      <trkpt lat="45.41966" lon="5.82297">
        <ele>657</ele>
        <time>2011-08-10T09:45:15Z</time>
      </trkpt>
      <trkpt lat="45.41926" lon="5.82253">
        <ele>661</ele>
        <time>2011-08-10T09:45:22Z</time>
      </trkpt>
      <trkpt lat="45.41894" lon="5.82242">
        <ele>667</ele>
        <time>2011-08-10T09:45:26Z</time>
      </trkpt>
      <trkpt lat="45.4187" lon="5.82212">
        <ele>670</ele>
        <time>2011-08-10T09:45:30Z</time>
      </trkpt>
      <trkpt lat="45.41867" lon="5.8219">
        <ele>668</ele>
        <time>2011-08-10T09:45:32Z</time>
      </trkpt>
      <trkpt lat="45.41872" lon="5.82167">
        <ele>665</ele>
        <time>2011-08-10T09:45:34Z</time>
      </trkpt>
      <trkpt lat="45.41857" lon="5.82121">
        <ele>652</ele>
        <time>2011-08-10T09:45:39Z</time>
      </trkpt>
      <trkpt lat="45.41832" lon="5.82076">
        <ele>658</ele>
        <time>2011-08-10T09:45:44Z</time>
      </trkpt>
      <trkpt lat="45.41812" lon="5.82022">
        <ele>655</ele>
        <time>2011-08-10T09:45:49Z</time>
      </trkpt>
      <trkpt lat="45.41785" lon="5.81988">
        <ele>648</ele>
        <time>2011-08-10T09:45:53Z</time>
      </trkpt>
      <trkpt lat="45.41763" lon="5.81903">
        <ele>643</ele>
        <time>2011-08-10T09:46:01Z</time>
      </trkpt>
      <trkpt lat="45.41768" lon="5.81895">
        <ele>641</ele>
        <time>2011-08-10T09:46:02Z</time>
      </trkpt>
      <trkpt lat="45.41807" lon="5.81825">
        <ele>640</ele>
        <time>2011-08-10T09:46:12Z</time>
      </trkpt>
      <trkpt lat="45.41821" lon="5.81802">
        <ele>641</ele>
        <time>2011-08-10T09:46:16Z</time>
      </trkpt>
      <trkpt lat="45.41827" lon="5.8179">
        <ele>642</ele>
        <time>2011-08-10T09:46:18Z</time>
      </trkpt>
      <trkpt lat="45.41833" lon="5.81762">
        <ele>642</ele>
        <time>2011-08-10T09:46:22Z</time>
      </trkpt>
      <trkpt lat="45.4184" lon="5.817">
        <ele>642</ele>
        <time>2011-08-10T09:46:29Z</time>
      </trkpt>
      <trkpt lat="45.41861" lon="5.81649">
        <ele>651</ele>
        <time>2011-08-10T09:46:35Z</time>
      </trkpt>
      <trkpt lat="45.41883" lon="5.81627">
        <ele>652</ele>
        <time>2011-08-10T09:46:39Z</time>
      </trkpt>
      <trkpt lat="45.41943" lon="5.81612">
        <ele>649</ele>
        <time>2011-08-10T09:46:49Z</time>
      </trkpt>
      <trkpt lat="45.41991" lon="5.81618">
        <ele>647</ele>
        <time>2011-08-10T09:46:57Z</time>
      </trkpt>
      <trkpt lat="45.42029" lon="5.81614">
        <ele>641</ele>
        <time>2011-08-10T09:47:04Z</time>
      </trkpt>
      <trkpt lat="45.42069" lon="5.81602">
        <ele>643</ele>
        <time>2011-08-10T09:47:11Z</time>
      </trkpt>
      <trkpt lat="45.42146" lon="5.81587">
        <ele>623</ele>
        <time>2011-08-10T09:47:25Z</time>
      </trkpt>
      <trkpt lat="45.42163" lon="5.81546">
        <ele>647</ele>
        <time>2011-08-10T09:47:32Z</time>
      </trkpt>
      <trkpt lat="45.42165" lon="5.81525">
        <ele>652</ele>
        <time>2011-08-10T09:47:35Z</time>
      </trkpt>
      <trkpt lat="45.42174" lon="5.81499">
        <ele>651</ele>
        <time>2011-08-10T09:47:39Z</time>
      </trkpt>
      <trkpt lat="45.42189" lon="5.81477">
        <ele>645</ele>
        <time>2011-08-10T09:47:43Z</time>
      </trkpt>
      <trkpt lat="45.42206" lon="5.81448">
        <ele>644</ele>
        <time>2011-08-10T09:47:48Z</time>
      </trkpt>
      <trkpt lat="45.42236" lon="5.81424">
        <ele>637</ele>
        <time>2011-08-10T09:47:54Z</time>
      </trkpt>
      <trkpt lat="45.42251" lon="5.81399">
        <ele>632</ele>
        <time>2011-08-10T09:47:58Z</time>
      </trkpt>
      <trkpt lat="45.42257" lon="5.81387">
        <ele>633</ele>
        <time>2011-08-10T09:48:00Z</time>
      </trkpt>
      <trkpt lat="45.4227" lon="5.81371">
        <ele>635</ele>
        <time>2011-08-10T09:48:03Z</time>
      </trkpt>
      <trkpt lat="45.42301" lon="5.81347">
        <ele>631</ele>
        <time>2011-08-10T09:48:09Z</time>
      </trkpt>
      <trkpt lat="45.42322" lon="5.81312">
        <ele>652</ele>
        <time>2011-08-10T09:48:15Z</time>
      </trkpt>
      <trkpt lat="45.42337" lon="5.81295">
        <ele>632</ele>
        <time>2011-08-10T09:48:19Z</time>
      </trkpt>
      <trkpt lat="45.4239" lon="5.81266">
        <ele>627</ele>
        <time>2011-08-10T09:48:33Z</time>
      </trkpt>
      <trkpt lat="45.42428" lon="5.81231">
        <ele>615</ele>
        <time>2011-08-10T09:48:46Z</time>
      </trkpt>
      <trkpt lat="45.42413" lon="5.81169">
        <ele>648</ele>
        <time>2011-08-10T09:48:58Z</time>
      </trkpt>
      <trkpt lat="45.42414" lon="5.81102">
        <ele>672</ele>
        <time>2011-08-10T09:49:10Z</time>
      </trkpt>
      <trkpt lat="45.42417" lon="5.81091">
        <ele>654</ele>
        <time>2011-08-10T09:49:12Z</time>
      </trkpt>
      <trkpt lat="45.42431" lon="5.81064">
        <ele>661</ele>
        <time>2011-08-10T09:49:18Z</time>
      </trkpt>
      <trkpt lat="45.42484" lon="5.81049">
        <ele>653</ele>
        <time>2011-08-10T09:49:32Z</time>
      </trkpt>
      <trkpt lat="45.42513" lon="5.81008">
        <ele>641</ele>
        <time>2011-08-10T09:49:44Z</time>
      </trkpt>
      <trkpt lat="45.42513" lon="5.80982">
        <ele>634</ele>
        <time>2011-08-10T09:49:50Z</time>
      </trkpt>
      <trkpt lat="45.42511" lon="5.80982">
        <ele>634</ele>
        <time>2011-08-10T09:49:53Z</time>
      </trkpt>
      <trkpt lat="45.425" lon="5.81002">
        <ele>654</ele>
        <time>2011-08-10T09:50:02Z</time>
      </trkpt>
      <trkpt lat="45.42474" lon="5.81023">
        <ele>659</ele>
        <time>2011-08-10T09:50:19Z</time>
      </trkpt>
      <trkpt lat="45.42439" lon="5.81012">
        <ele>671</ele>
        <time>2011-08-10T09:50:41Z</time>
      </trkpt>
      <trkpt lat="45.4243" lon="5.81009">
        <ele>677</ele>
        <time>2011-08-10T09:50:46Z</time>
      </trkpt>
      <trkpt lat="45.42407" lon="5.8101">
        <ele>699</ele>
        <time>2011-08-10T09:50:58Z</time>
      </trkpt>
      <trkpt lat="45.42389" lon="5.81032">
        <ele>705</ele>
        <time>2011-08-10T09:51:11Z</time>
      </trkpt>
      <trkpt lat="45.42384" lon="5.81038">
        <ele>706</ele>
        <time>2011-08-10T09:51:14Z</time>
      </trkpt>
      <trkpt lat="45.42379" lon="5.81051">
        <ele>706</ele>
        <time>2011-08-10T09:51:20Z</time>
      </trkpt>
      <trkpt lat="45.4237" lon="5.811">
        <ele>691</ele>
        <time>2011-08-10T09:51:39Z</time>
      </trkpt>
      <trkpt lat="45.4237" lon="5.81113">
        <ele>689</ele>
        <time>2011-08-10T09:51:44Z</time>
      </trkpt>
      <trkpt lat="45.42377" lon="5.81138">
        <ele>683</ele>
        <time>2011-08-10T09:51:56Z</time>
      </trkpt>
      <trkpt lat="45.42377" lon="5.81144">
        <ele>682</ele>
        <time>2011-08-10T09:51:59Z</time>
      </trkpt>
      <trkpt lat="45.42377" lon="5.81154">
        <ele>681</ele>
        <time>2011-08-10T09:52:03Z</time>
      </trkpt>
      <trkpt lat="45.42374" lon="5.81166">
        <ele>682</ele>
        <time>2011-08-10T09:52:09Z</time>
      </trkpt>
      <trkpt lat="45.42367" lon="5.81178">
        <ele>669</ele>
        <time>2011-08-10T09:52:15Z</time>
      </trkpt>
      <trkpt lat="45.42349" lon="5.81196">
        <ele>672</ele>
        <time>2011-08-10T09:52:29Z</time>
      </trkpt>
      <trkpt lat="45.4231" lon="5.81204">
        <ele>699</ele>
        <time>2011-08-10T09:52:51Z</time>
      </trkpt>
      <trkpt lat="45.42272" lon="5.81208">
        <ele>705</ele>
        <time>2011-08-10T09:53:14Z</time>
      </trkpt>
      <trkpt lat="45.42247" lon="5.81224">
        <ele>721</ele>
        <time>2011-08-10T09:53:30Z</time>
      </trkpt>
      <trkpt lat="45.4223" lon="5.81252">
        <ele>703</ele>
        <time>2011-08-10T09:53:44Z</time>
      </trkpt>
      <trkpt lat="45.42198" lon="5.81262">
        <ele>709</ele>
        <time>2011-08-10T09:54:01Z</time>
      </trkpt>
      <trkpt lat="45.42159" lon="5.81273">
        <ele>735</ele>
        <time>2011-08-10T09:54:23Z</time>
      </trkpt>
      <trkpt lat="45.42135" lon="5.81287">
        <ele>738</ele>
        <time>2011-08-10T09:54:37Z</time>
      </trkpt>
      <trkpt lat="45.42123" lon="5.81301">
        <ele>739</ele>
        <time>2011-08-10T09:54:46Z</time>
      </trkpt>
      <trkpt lat="45.42122" lon="5.81305">
        <ele>739</ele>
        <time>2011-08-10T09:54:48Z</time>
      </trkpt>
      <trkpt lat="45.42102" lon="5.81332">
        <ele>743</ele>
        <time>2011-08-10T09:55:04Z</time>
      </trkpt>
      <trkpt lat="45.421" lon="5.81334">
        <ele>732</ele>
        <time>2011-08-10T09:55:05Z</time>
      </trkpt>
      <trkpt lat="45.42085" lon="5.81384">
        <ele>722</ele>
        <time>2011-08-10T09:55:25Z</time>
      </trkpt>
      <trkpt lat="45.42081" lon="5.8139">
        <ele>739</ele>
        <time>2011-08-10T09:55:28Z</time>
      </trkpt>
      <trkpt lat="45.42078" lon="5.81399">
        <ele>736</ele>
        <time>2011-08-10T09:55:31Z</time>
      </trkpt>
      <trkpt lat="45.42061" lon="5.81408">
        <ele>738</ele>
        <time>2011-08-10T09:55:46Z</time>
      </trkpt>
      <trkpt lat="45.42057" lon="5.81407">
        <ele>740</ele>
        <time>2011-08-10T09:55:49Z</time>
      </trkpt>
      <trkpt lat="45.42037" lon="5.814">
        <ele>744</ele>
        <time>2011-08-10T09:56:03Z</time>
      </trkpt>
      <trkpt lat="45.42007" lon="5.8139">
        <ele>748</ele>
        <time>2011-08-10T09:56:23Z</time>
      </trkpt>
      <trkpt lat="45.4199" lon="5.81396">
        <ele>755</ele>
        <time>2011-08-10T09:56:36Z</time>
      </trkpt>
      <trkpt lat="45.41956" lon="5.8139">
        <ele>760</ele>
        <time>2011-08-10T09:56:55Z</time>
      </trkpt>
      <trkpt lat="45.41927" lon="5.81381">
        <ele>762</ele>
        <time>2011-08-10T09:57:14Z</time>
      </trkpt>
      <trkpt lat="45.41902" lon="5.81373">
        <ele>766</ele>
        <time>2011-08-10T09:57:29Z</time>
      </trkpt>
      <trkpt lat="45.41896" lon="5.8137">
        <ele>767</ele>
        <time>2011-08-10T09:57:33Z</time>
      </trkpt>
      <trkpt lat="45.41886" lon="5.81366">
        <ele>767</ele>
        <time>2011-08-10T09:57:39Z</time>
      </trkpt>
      <trkpt lat="45.41856" lon="5.81355">
        <ele>769</ele>
        <time>2011-08-10T09:57:58Z</time>
      </trkpt>
      <trkpt lat="45.41835" lon="5.81346">
        <ele>774</ele>
        <time>2011-08-10T09:58:13Z</time>
      </trkpt>
      <trkpt lat="45.4183" lon="5.81341">
        <ele>774</ele>
        <time>2011-08-10T09:58:17Z</time>
      </trkpt>
      <trkpt lat="45.41825" lon="5.81341">
        <ele>772</ele>
        <time>2011-08-10T09:58:20Z</time>
      </trkpt>
      <trkpt lat="45.41816" lon="5.81336">
        <ele>770</ele>
        <time>2011-08-10T09:58:26Z</time>
      </trkpt>
      <trkpt lat="45.4179" lon="5.8133">
        <ele>786</ele>
        <time>2011-08-10T09:58:42Z</time>
      </trkpt>
      <trkpt lat="45.41761" lon="5.81318">
        <ele>782</ele>
        <time>2011-08-10T09:59:00Z</time>
      </trkpt>
      <trkpt lat="45.41736" lon="5.81305">
        <ele>781</ele>
        <time>2011-08-10T09:59:17Z</time>
      </trkpt>
      <trkpt lat="45.41724" lon="5.81296">
        <ele>783</ele>
        <time>2011-08-10T09:59:26Z</time>
      </trkpt>
      <trkpt lat="45.41697" lon="5.81271">
        <ele>787</ele>
        <time>2011-08-10T09:59:44Z</time>
      </trkpt>
      <trkpt lat="45.41691" lon="5.81265">
        <ele>788</ele>
        <time>2011-08-10T09:59:48Z</time>
      </trkpt>
      <trkpt lat="45.41653" lon="5.81246">
        <ele>795</ele>
        <time>2011-08-10T10:00:12Z</time>
      </trkpt>
      <trkpt lat="45.41622" lon="5.81229">
        <ele>793</ele>
        <time>2011-08-10T10:00:34Z</time>
      </trkpt>
      <trkpt lat="45.41592" lon="5.81189">
        <ele>797</ele>
        <time>2011-08-10T10:00:58Z</time>
      </trkpt>
      <trkpt lat="45.41582" lon="5.81182">
        <ele>792</ele>
        <time>2011-08-10T10:01:05Z</time>
      </trkpt>
      <trkpt lat="45.4159" lon="5.81173">
        <ele>798</ele>
        <time>2011-08-10T10:01:15Z</time>
      </trkpt>
      <trkpt lat="45.41614" lon="5.81191">
        <ele>798</ele>
        <time>2011-08-10T10:01:32Z</time>
      </trkpt>
      <trkpt lat="45.4163" lon="5.81203">
        <ele>799</ele>
        <time>2011-08-10T10:01:43Z</time>
      </trkpt>
      <trkpt lat="45.41636" lon="5.81202">
        <ele>800</ele>
        <time>2011-08-10T10:01:47Z</time>
      </trkpt>
      <trkpt lat="45.41661" lon="5.81188">
        <ele>809</ele>
        <time>2011-08-10T10:02:05Z</time>
      </trkpt>
      <trkpt lat="45.41667" lon="5.8119">
        <ele>808</ele>
        <time>2011-08-10T10:02:18Z</time>
      </trkpt>
      <trkpt lat="45.41672" lon="5.81191">
        <ele>818</ele>
        <time>2011-08-10T10:02:38Z</time>
      </trkpt>
      <trkpt lat="45.4168" lon="5.81192">
        <ele>817</ele>
        <time>2011-08-10T10:02:54Z</time>
      </trkpt>
      <trkpt lat="45.41679" lon="5.81192">
        <ele>817</ele>
        <time>2011-08-10T10:03:02Z</time>
      </trkpt>
      <trkpt lat="45.41686" lon="5.81192">
        <ele>817</ele>
        <time>2011-08-10T10:03:06Z</time>
      </trkpt>
      <trkpt lat="45.41726" lon="5.81189">
        <ele>821</ele>
        <time>2011-08-10T10:03:27Z</time>
      </trkpt>
      <trkpt lat="45.41753" lon="5.81187">
        <ele>828</ele>
        <time>2011-08-10T10:03:42Z</time>
      </trkpt>
      <trkpt lat="45.41775" lon="5.81178">
        <ele>828</ele>
        <time>2011-08-10T10:03:56Z</time>
      </trkpt>
      <trkpt lat="45.41794" lon="5.81175">
        <ele>828</ele>
        <time>2011-08-10T10:04:06Z</time>
      </trkpt>
      <trkpt lat="45.41813" lon="5.81168">
        <ele>831</ele>
        <time>2011-08-10T10:04:19Z</time>
      </trkpt>
      <trkpt lat="45.41841" lon="5.81158">
        <ele>843</ele>
        <time>2011-08-10T10:04:38Z</time>
      </trkpt>
      <trkpt lat="45.41863" lon="5.81148">
        <ele>846</ele>
        <time>2011-08-10T10:04:50Z</time>
      </trkpt>
      <trkpt lat="45.41887" lon="5.81132">
        <ele>847</ele>
        <time>2011-08-10T10:05:06Z</time>
      </trkpt>
      <trkpt lat="45.41894" lon="5.81098">
        <ele>851</ele>
        <time>2011-08-10T10:05:24Z</time>
      </trkpt>
      <trkpt lat="45.41897" lon="5.81075">
        <ele>863</ele>
        <time>2011-08-10T10:05:34Z</time>
      </trkpt>
      <trkpt lat="45.41903" lon="5.81062">
        <ele>864</ele>
        <time>2011-08-10T10:05:43Z</time>
      </trkpt>
      <trkpt lat="45.41907" lon="5.81052">
        <ele>866</ele>
        <time>2011-08-10T10:05:48Z</time>
      </trkpt>
      <trkpt lat="45.41908" lon="5.81047">
        <ele>867</ele>
        <time>2011-08-10T10:05:51Z</time>
      </trkpt>
      <trkpt lat="45.41917" lon="5.81036">
        <ele>860</ele>
        <time>2011-08-10T10:05:57Z</time>
      </trkpt>
      <trkpt lat="45.41921" lon="5.81023">
        <ele>863</ele>
        <time>2011-08-10T10:06:03Z</time>
      </trkpt>
      <trkpt lat="45.41935" lon="5.80999">
        <ele>875</ele>
        <time>2011-08-10T10:06:18Z</time>
      </trkpt>
      <trkpt lat="45.41957" lon="5.80976">
        <ele>875</ele>
        <time>2011-08-10T10:06:32Z</time>
      </trkpt>
      <trkpt lat="45.41972" lon="5.80962">
        <ele>876</ele>
        <time>2011-08-10T10:06:46Z</time>
      </trkpt>
      <trkpt lat="45.41985" lon="5.80954">
        <ele>876</ele>
        <time>2011-08-10T10:06:54Z</time>
      </trkpt>
      <trkpt lat="45.41991" lon="5.80952">
        <ele>876</ele>
        <time>2011-08-10T10:06:58Z</time>
      </trkpt>
      <trkpt lat="45.42012" lon="5.80948">
        <ele>868</ele>
        <time>2011-08-10T10:07:12Z</time>
      </trkpt>
      <trkpt lat="45.42031" lon="5.80943">
        <ele>868</ele>
        <time>2011-08-10T10:07:24Z</time>
      </trkpt>
      <trkpt lat="45.42036" lon="5.80933">
        <ele>868</ele>
        <time>2011-08-10T10:07:29Z</time>
      </trkpt>
      <trkpt lat="45.42028" lon="5.80919">
        <ele>871</ele>
        <time>2011-08-10T10:07:37Z</time>
      </trkpt>
      <trkpt lat="45.41992" lon="5.80928">
        <ele>880</ele>
        <time>2011-08-10T10:07:58Z</time>
      </trkpt>
      <trkpt lat="45.41962" lon="5.80926">
        <ele>880</ele>
        <time>2011-08-10T10:08:16Z</time>
      </trkpt>
      <trkpt lat="45.41929" lon="5.8092">
        <ele>887</ele>
        <time>2011-08-10T10:08:36Z</time>
      </trkpt>
      <trkpt lat="45.419" lon="5.80923">
        <ele>892</ele>
        <time>2011-08-10T10:08:55Z</time>
      </trkpt>
      <trkpt lat="45.41882" lon="5.80923">
        <ele>892</ele>
        <time>2011-08-10T10:09:07Z</time>
      </trkpt>
      <trkpt lat="45.41875" lon="5.8092">
        <ele>892</ele>
        <time>2011-08-10T10:09:14Z</time>
      </trkpt>
      <trkpt lat="45.41873" lon="5.80918">
        <ele>893</ele>
        <time>2011-08-10T10:09:16Z</time>
      </trkpt>
      <trkpt lat="45.41839" lon="5.80913">
        <ele>905</ele>
        <time>2011-08-10T10:09:36Z</time>
      </trkpt>
      <trkpt lat="45.41819" lon="5.80906">
        <ele>908</ele>
        <time>2011-08-10T10:09:49Z</time>
      </trkpt>
      <trkpt lat="45.41802" lon="5.80892">
        <ele>912</ele>
        <time>2011-08-10T10:10:02Z</time>
      </trkpt>
      <trkpt lat="45.41768" lon="5.80873">
        <ele>914</ele>
        <time>2011-08-10T10:10:25Z</time>
      </trkpt>
      <trkpt lat="45.41738" lon="5.80854">
        <ele>915</ele>
        <time>2011-08-10T10:10:45Z</time>
      </trkpt>
      <trkpt lat="45.41709" lon="5.80836">
        <ele>914</ele>
        <time>2011-08-10T10:11:05Z</time>
      </trkpt>
      <trkpt lat="45.41682" lon="5.80823">
        <ele>926</ele>
        <time>2011-08-10T10:11:22Z</time>
      </trkpt>
      <trkpt lat="45.41657" lon="5.80812">
        <ele>921</ele>
        <time>2011-08-10T10:11:36Z</time>
      </trkpt>
      <trkpt lat="45.4163" lon="5.80799">
        <ele>922</ele>
        <time>2011-08-10T10:11:53Z</time>
      </trkpt>
      <trkpt lat="45.41622" lon="5.80792">
        <ele>923</ele>
        <time>2011-08-10T10:11:58Z</time>
      </trkpt>
      <trkpt lat="45.41597" lon="5.80754">
        <ele>924</ele>
        <time>2011-08-10T10:12:20Z</time>
      </trkpt>
      <trkpt lat="45.41568" lon="5.8072">
        <ele>933</ele>
        <time>2011-08-10T10:12:41Z</time>
      </trkpt>
      <trkpt lat="45.41555" lon="5.807">
        <ele>937</ele>
        <time>2011-08-10T10:12:52Z</time>
      </trkpt>
      <trkpt lat="45.41519" lon="5.80687">
        <ele>939</ele>
        <time>2011-08-10T10:13:11Z</time>
      </trkpt>
      <trkpt lat="45.41481" lon="5.80682">
        <ele>938</ele>
        <time>2011-08-10T10:13:35Z</time>
      </trkpt>
      <trkpt lat="45.41471" lon="5.80672">
        <ele>938</ele>
        <time>2011-08-10T10:13:45Z</time>
      </trkpt>
      <trkpt lat="45.41465" lon="5.80667">
        <ele>938</ele>
        <time>2011-08-10T10:13:50Z</time>
      </trkpt>
      <trkpt lat="45.41447" lon="5.80649">
        <ele>959</ele>
        <time>2011-08-10T10:14:03Z</time>
      </trkpt>
      <trkpt lat="45.41428" lon="5.80633">
        <ele>961</ele>
        <time>2011-08-10T10:14:21Z</time>
      </trkpt>
      <trkpt lat="45.41405" lon="5.80624">
        <ele>958</ele>
        <time>2011-08-10T10:14:37Z</time>
      </trkpt>
      <trkpt lat="45.41381" lon="5.806">
        <ele>959</ele>
        <time>2011-08-10T10:14:50Z</time>
      </trkpt>
      <trkpt lat="45.41352" lon="5.80586">
        <ele>960</ele>
        <time>2011-08-10T10:15:10Z</time>
      </trkpt>
      <trkpt lat="45.41336" lon="5.80569">
        <ele>970</ele>
        <time>2011-08-10T10:15:23Z</time>
      </trkpt>
      <trkpt lat="45.41317" lon="5.80542">
        <ele>971</ele>
        <time>2011-08-10T10:15:41Z</time>
      </trkpt>
      <trkpt lat="45.41303" lon="5.80525">
        <ele>973</ele>
        <time>2011-08-10T10:15:53Z</time>
      </trkpt>
      <trkpt lat="45.41278" lon="5.80513">
        <ele>973</ele>
        <time>2011-08-10T10:16:09Z</time>
      </trkpt>
      <trkpt lat="45.41273" lon="5.8051">
        <ele>973</ele>
        <time>2011-08-10T10:16:13Z</time>
      </trkpt>
      <trkpt lat="45.41266" lon="5.80508">
        <ele>974</ele>
        <time>2011-08-10T10:16:17Z</time>
      </trkpt>
      <trkpt lat="45.41233" lon="5.80498">
        <ele>982</ele>
        <time>2011-08-10T10:16:37Z</time>
      </trkpt>
      <trkpt lat="45.41227" lon="5.80488">
        <ele>983</ele>
        <time>2011-08-10T10:16:43Z</time>
      </trkpt>
      <trkpt lat="45.41232" lon="5.80477">
        <ele>985</ele>
        <time>2011-08-10T10:16:49Z</time>
      </trkpt>
      <trkpt lat="45.41252" lon="5.80472">
        <ele>987</ele>
        <time>2011-08-10T10:17:04Z</time>
      </trkpt>
      <trkpt lat="45.41271" lon="5.8047">
        <ele>989</ele>
        <time>2011-08-10T10:17:16Z</time>
      </trkpt>
      <trkpt lat="45.41287" lon="5.80466">
        <ele>990</ele>
        <time>2011-08-10T10:17:29Z</time>
      </trkpt>
      <trkpt lat="45.41315" lon="5.80473">
        <ele>991</ele>
        <time>2011-08-10T10:17:48Z</time>
      </trkpt>
      <trkpt lat="45.41343" lon="5.80485">
        <ele>994</ele>
        <time>2011-08-10T10:18:06Z</time>
      </trkpt>
      <trkpt lat="45.41371" lon="5.80498">
        <ele>997</ele>
        <time>2011-08-10T10:18:23Z</time>
      </trkpt>
      <trkpt lat="45.41382" lon="5.80504">
        <ele>983</ele>
        <time>2011-08-10T10:18:29Z</time>
      </trkpt>
      <trkpt lat="45.41394" lon="5.80484">
        <ele>999</ele>
        <time>2011-08-10T10:18:42Z</time>
      </trkpt>
      <trkpt lat="45.41392" lon="5.80483">
        <ele>999</ele>
        <time>2011-08-10T10:18:43Z</time>
      </trkpt>
      <trkpt lat="45.41388" lon="5.80478">
        <ele>1000</ele>
        <time>2011-08-10T10:18:46Z</time>
      </trkpt>
      <trkpt lat="45.41361" lon="5.8046">
        <ele>1001</ele>
        <time>2011-08-10T10:19:06Z</time>
      </trkpt>
      <trkpt lat="45.41356" lon="5.80456">
        <ele>1001</ele>
        <time>2011-08-10T10:19:10Z</time>
      </trkpt>
      <trkpt lat="45.41351" lon="5.80457">
        <ele>1001</ele>
        <time>2011-08-10T10:19:14Z</time>
      </trkpt>
      <trkpt lat="45.41347" lon="5.80458">
        <ele>1000</ele>
        <time>2011-08-10T10:19:32Z</time>
      </trkpt>
      <trkpt lat="45.41347" lon="5.80458">
        <ele>1000</ele>
        <time>2011-08-10T10:19:34Z</time>
      </trkpt>
      <trkpt lat="45.41331" lon="5.80439">
        <ele>999</ele>
        <time>2011-08-10T10:19:48Z</time>
      </trkpt>
      <trkpt lat="45.41307" lon="5.80415">
        <ele>1013</ele>
        <time>2011-08-10T10:20:04Z</time>
      </trkpt>
      <trkpt lat="45.41284" lon="5.8039">
        <ele>1015</ele>
        <time>2011-08-10T10:20:21Z</time>
      </trkpt>
      <trkpt lat="45.41273" lon="5.80382">
        <ele>1016</ele>
        <time>2011-08-10T10:20:27Z</time>
      </trkpt>
      <trkpt lat="45.41267" lon="5.80383">
        <ele>1015</ele>
        <time>2011-08-10T10:20:42Z</time>
      </trkpt>
      <trkpt lat="45.41268" lon="5.80383">
        <ele>1015</ele>
        <time>2011-08-10T10:20:58Z</time>
      </trkpt>
      <trkpt lat="45.41266" lon="5.80378">
        <ele>1016</ele>
        <time>2011-08-10T10:21:01Z</time>
      </trkpt>
      <trkpt lat="45.41235" lon="5.80353">
        <ele>1019</ele>
        <time>2011-08-10T10:21:20Z</time>
      </trkpt>
      <trkpt lat="45.41224" lon="5.80344">
        <ele>1019</ele>
        <time>2011-08-10T10:21:33Z</time>
      </trkpt>
      <trkpt lat="45.41224" lon="5.80344">
        <ele>1019</ele>
        <time>2011-08-10T10:22:04Z</time>
      </trkpt>
      <trkpt lat="45.41217" lon="5.8034">
        <ele>1019</ele>
        <time>2011-08-10T10:23:43Z</time>
      </trkpt>
      <trkpt lat="45.41188" lon="5.80329">
        <ele>1034</ele>
        <time>2011-08-10T10:24:01Z</time>
      </trkpt>
      <trkpt lat="45.41147" lon="5.8032">
        <ele>1036</ele>
        <time>2011-08-10T10:24:24Z</time>
      </trkpt>
      <trkpt lat="45.41112" lon="5.80331">
        <ele>1039</ele>
        <time>2011-08-10T10:24:46Z</time>
      </trkpt>
      <trkpt lat="45.41102" lon="5.80334">
        <ele>1026</ele>
        <time>2011-08-10T10:24:54Z</time>
      </trkpt>
      <trkpt lat="45.41099" lon="5.80336">
        <ele>1027</ele>
        <time>2011-08-10T10:24:58Z</time>
      </trkpt>
      <trkpt lat="45.41073" lon="5.80333">
        <ele>1040</ele>
        <time>2011-08-10T10:25:19Z</time>
      </trkpt>
      <trkpt lat="45.41039" lon="5.80336">
        <ele>1033</ele>
        <time>2011-08-10T10:25:42Z</time>
      </trkpt>
      <trkpt lat="45.41007" lon="5.80341">
        <ele>1039</ele>
        <time>2011-08-10T10:26:03Z</time>
      </trkpt>
      <trkpt lat="45.40988" lon="5.8034">
        <ele>1043</ele>
        <time>2011-08-10T10:26:15Z</time>
      </trkpt>
      <trkpt lat="45.40988" lon="5.80333">
        <ele>1050</ele>
        <time>2011-08-10T10:26:21Z</time>
      </trkpt>
      <trkpt lat="45.41008" lon="5.80329">
        <ele>1046</ele>
        <time>2011-08-10T10:26:35Z</time>
      </trkpt>
      <trkpt lat="45.41033" lon="5.8031">
        <ele>1049</ele>
        <time>2011-08-10T10:26:54Z</time>
      </trkpt>
      <trkpt lat="45.41052" lon="5.80293">
        <ele>1051</ele>
        <time>2011-08-10T10:27:09Z</time>
      </trkpt>
      <trkpt lat="45.41069" lon="5.80274">
        <ele>1054</ele>
        <time>2011-08-10T10:27:24Z</time>
      </trkpt>
      <trkpt lat="45.41073" lon="5.80271">
        <ele>1054</ele>
        <time>2011-08-10T10:27:28Z</time>
      </trkpt>
      <trkpt lat="45.41093" lon="5.80227">
        <ele>1063</ele>
        <time>2011-08-10T10:27:52Z</time>
      </trkpt>
      <trkpt lat="45.41105" lon="5.8021">
        <ele>1065</ele>
        <time>2011-08-10T10:28:03Z</time>
      </trkpt>
      <trkpt lat="45.41121" lon="5.80192">
        <ele>1066</ele>
        <time>2011-08-10T10:28:16Z</time>
      </trkpt>
      <trkpt lat="45.41113" lon="5.80178">
        <ele>1068</ele>
        <time>2011-08-10T10:28:25Z</time>
      </trkpt>
      <trkpt lat="45.41107" lon="5.80178">
        <ele>1068</ele>
        <time>2011-08-10T10:28:28Z</time>
      </trkpt>
      <trkpt lat="45.41105" lon="5.80179">
        <ele>1068</ele>
        <time>2011-08-10T10:28:30Z</time>
      </trkpt>
      <trkpt lat="45.41095" lon="5.80179">
        <ele>1069</ele>
        <time>2011-08-10T10:28:35Z</time>
      </trkpt>
      <trkpt lat="45.41075" lon="5.80183">
        <ele>1072</ele>
        <time>2011-08-10T10:28:47Z</time>
      </trkpt>
      <trkpt lat="45.41026" lon="5.80177">
        <ele>1074</ele>
        <time>2011-08-10T10:29:11Z</time>
      </trkpt>
      <trkpt lat="45.40981" lon="5.80183">
        <ele>1078</ele>
        <time>2011-08-10T10:29:32Z</time>
      </trkpt>
      <trkpt lat="45.40955" lon="5.80203">
        <ele>1077</ele>
        <time>2011-08-10T10:29:48Z</time>
      </trkpt>
      <trkpt lat="45.40957" lon="5.802">
        <ele>1078</ele>
        <time>2011-08-10T10:30:27Z</time>
      </trkpt>
      <trkpt lat="45.40952" lon="5.80193">
        <ele>1078</ele>
        <time>2011-08-10T10:30:33Z</time>
      </trkpt>
      <trkpt lat="45.40909" lon="5.80207">
        <ele>1083</ele>
        <time>2011-08-10T10:30:53Z</time>
      </trkpt>
      <trkpt lat="45.40871" lon="5.80224">
        <ele>1084</ele>
        <time>2011-08-10T10:31:12Z</time>
      </trkpt>
      <trkpt lat="45.40849" lon="5.8022">
        <ele>1085</ele>
        <time>2011-08-10T10:31:23Z</time>
      </trkpt>
      <trkpt lat="45.40804" lon="5.80218">
        <ele>1092</ele>
        <time>2011-08-10T10:31:46Z</time>
      </trkpt>
      <trkpt lat="45.40775" lon="5.80222">
        <ele>1093</ele>
        <time>2011-08-10T10:32:01Z</time>
      </trkpt>
      <trkpt lat="45.40761" lon="5.80216">
        <ele>1094</ele>
        <time>2011-08-10T10:32:09Z</time>
      </trkpt>
      <trkpt lat="45.40738" lon="5.80178">
        <ele>1101</ele>
        <time>2011-08-10T10:32:28Z</time>
      </trkpt>
      <trkpt lat="45.40737" lon="5.80168">
        <ele>1101</ele>
        <time>2011-08-10T10:32:32Z</time>
      </trkpt>
      <trkpt lat="45.4074" lon="5.8012">
        <ele>1106</ele>
        <time>2011-08-10T10:32:50Z</time>
      </trkpt>
      <trkpt lat="45.40759" lon="5.80076">
        <ele>1106</ele>
        <time>2011-08-10T10:33:09Z</time>
      </trkpt>
      <trkpt lat="45.4077" lon="5.80029">
        <ele>1106</ele>
        <time>2011-08-10T10:33:28Z</time>
      </trkpt>
      <trkpt lat="45.4077" lon="5.7998">
        <ele>1111</ele>
        <time>2011-08-10T10:33:46Z</time>
      </trkpt>
      <trkpt lat="45.40791" lon="5.79929">
        <ele>1114</ele>
        <time>2011-08-10T10:34:08Z</time>
      </trkpt>
      <trkpt lat="45.40796" lon="5.79924">
        <ele>1114</ele>
        <time>2011-08-10T10:34:21Z</time>
      </trkpt>
      <trkpt lat="45.40832" lon="5.79899">
        <ele>1122</ele>
        <time>2011-08-10T10:34:42Z</time>
      </trkpt>
      <trkpt lat="45.40872" lon="5.79875">
        <ele>1127</ele>
        <time>2011-08-10T10:35:03Z</time>
      </trkpt>
      <trkpt lat="45.40915" lon="5.79867">
        <ele>1128</ele>
        <time>2011-08-10T10:35:25Z</time>
      </trkpt>
      <trkpt lat="45.40963" lon="5.79852">
        <ele>1129</ele>
        <time>2011-08-10T10:35:50Z</time>
      </trkpt>
      <trkpt lat="45.41004" lon="5.79828">
        <ele>1139</ele>
        <time>2011-08-10T10:36:14Z</time>
      </trkpt>
      <trkpt lat="45.41024" lon="5.79812">
        <ele>1144</ele>
        <time>2011-08-10T10:36:26Z</time>
      </trkpt>
      <trkpt lat="45.4104" lon="5.79797">
        <ele>1146</ele>
        <time>2011-08-10T10:36:37Z</time>
      </trkpt>
      <trkpt lat="45.41048" lon="5.79791">
        <ele>1146</ele>
        <time>2011-08-10T10:36:52Z</time>
      </trkpt>
      <trkpt lat="45.4106" lon="5.79753">
        <ele>1151</ele>
        <time>2011-08-10T10:37:08Z</time>
      </trkpt>
      <trkpt lat="45.41036" lon="5.79731">
        <ele>1161</ele>
        <time>2011-08-10T10:37:22Z</time>
      </trkpt>
      <trkpt lat="45.41004" lon="5.79731">
        <ele>1160</ele>
        <time>2011-08-10T10:37:39Z</time>
      </trkpt>
      <trkpt lat="45.41003" lon="5.79731">
        <ele>1160</ele>
        <time>2011-08-10T10:37:54Z</time>
      </trkpt>
      <trkpt lat="45.41002" lon="5.7973">
        <ele>1160</ele>
        <time>2011-08-10T10:38:48Z</time>
      </trkpt>
      <trkpt lat="45.40983" lon="5.79724">
        <ele>1162</ele>
        <time>2011-08-10T10:39:11Z</time>
      </trkpt>
    </trkseg>
  </trk>
</gpx>